Time,TemperatureF,DewpointF,PressureIn,WindDirection,WindDirectionDegrees,WindSpeedMPH,WindSpeedGustMPH,Humidity,HourlyPrecipIn,Conditions,Clouds,dailyrainin,SoftwareType,DateUTC
2013-09-05 00:01:00,64.5,61.5,30.20,North,9,0.0,9.0,90,0.00,,,0.00,Wunderground v.1.15,2013-09-05 04:01:00,
2013-09-05 00:02:00,64.5,61.8,30.20,North,9,0.0,9.0,91,0.00,,,0.00,Wunderground v.1.15,2013-09-05 04:02:00,
2013-09-05 00:03:00,64.5,61.8,30.21,North,9,0.0,9.0,91,0.00,,,0.00,Wunderground v.1.15,2013-09-05 04:03:00,
2013-09-05 00:04:00,64.5,61.8,30.21,North,9,0.0,9.0,91,0.00,,,0.00,Wunderground v.1.15,2013-09-05 04:04:00,
2013-09-05 00:06:00,64.4,61.7,30.21,North,9,0.0,9.0,91,0.00,,,0.00,Wunderground v.1.15,2013-09-05 04:06:00,
2013-09-05 00:08:00,64.3,61.6,30.21,North,9,0.0,9.0,91,0.00,,,0.00,Wunderground v.1.15,2013-09-05 04:08:00,
2013-09-05 00:09:00,64.3,61.6,30.21,North,9,0.0,9.0,91,0.00,,,0.00,Wunderground v.1.15,2013-09-05 04:09:00,
2013-09-05 00:10:00,64.3,61.6,30.20,North,9,0.0,9.0,91,0.00,,,0.00,Wunderground v.1.15,2013-09-05 04:10:00,
2013-09-05 00:14:00,64.1,61.4,30.20,North,9,0.0,9.0,91,0.00,,,0.00,Wunderground v.1.15,2013-09-05 04:14:00,
2013-09-05 00:15:00,64.1,61.4,30.20,North,9,0.0,9.0,91,0.00,,,0.00,Wunderground v.1.15,2013-09-05 04:15:00,
2013-09-05 00:16:00,64.1,61.7,30.21,North,9,0.0,9.0,92,0.00,,,0.00,Wunderground v.1.15,2013-09-05 04:16:00,
2013-09-05 00:19:00,64.0,61.6,30.20,North,9,0.0,9.0,92,0.00,,,0.00,Wunderground v.1.15,2013-09-05 04:19:00,
2013-09-05 00:21:00,64.0,61.6,30.21,North,9,0.0,9.0,92,0.00,,,0.00,Wunderground v.1.15,2013-09-05 04:21:00,
2013-09-05 00:24:00,64.0,61.9,30.20,North,9,0.0,9.0,93,0.00,,,0.00,Wunderground v.1.15,2013-09-05 04:24:00,
2013-09-05 00:25:00,64.0,61.9,30.20,North,9,0.0,9.0,93,0.00,,,0.00,Wunderground v.1.15,2013-09-05 04:25:00,
2013-09-05 00:26:00,64.0,61.9,30.20,North,9,0.0,9.0,93,0.00,,,0.00,Wunderground v.1.15,2013-09-05 04:26:00,
2013-09-05 00:27:00,64.0,61.9,30.20,North,9,0.0,9.0,93,0.00,,,0.00,Wunderground v.1.15,2013-09-05 04:27:00,
2013-09-05 00:28:00,64.0,61.9,30.20,North,9,0.0,9.0,93,0.00,,,0.00,Wunderground v.1.15,2013-09-05 04:28:00,
2013-09-05 00:32:00,63.9,61.8,30.20,North,9,0.0,9.0,93,0.00,,,0.00,Wunderground v.1.15,2013-09-05 04:32:00,
2013-09-05 00:34:00,63.9,61.8,30.20,North,9,0.0,9.0,93,0.00,,,0.00,Wunderground v.1.15,2013-09-05 04:34:00,
2013-09-05 00:35:00,63.9,61.8,30.20,North,9,0.0,9.0,93,0.00,,,0.00,Wunderground v.1.15,2013-09-05 04:35:00,
2013-09-05 00:37:00,63.8,61.7,30.20,North,9,0.0,9.0,93,0.00,,,0.00,Wunderground v.1.15,2013-09-05 04:37:00,
2013-09-05 00:38:00,63.8,61.7,30.20,North,9,0.0,9.0,93,0.00,,,0.00,Wunderground v.1.15,2013-09-05 04:38:00,
2013-09-05 00:39:00,63.8,61.7,30.20,North,9,0.0,9.0,93,0.00,,,0.00,Wunderground v.1.15,2013-09-05 04:39:00,
2013-09-05 00:44:00,63.6,61.5,30.20,North,9,0.0,9.0,93,0.00,,,0.00,Wunderground v.1.15,2013-09-05 04:44:00,
2013-09-05 00:45:00,63.6,61.5,30.20,North,9,0.0,9.0,93,0.00,,,0.00,Wunderground v.1.15,2013-09-05 04:45:00,
2013-09-05 00:47:00,63.5,61.4,30.20,North,9,0.0,9.0,93,0.00,,,0.00,Wunderground v.1.15,2013-09-05 04:47:00,
2013-09-05 00:49:00,63.5,61.4,30.20,North,9,0.0,9.0,93,0.00,,,0.00,Wunderground v.1.15,2013-09-05 04:49:00,
2013-09-05 00:50:00,63.5,61.4,30.20,North,9,0.0,9.0,93,0.00,,,0.00,Wunderground v.1.15,2013-09-05 04:50:00,
2013-09-05 00:53:00,63.3,61.2,30.20,North,9,0.0,9.0,93,0.00,,,0.00,Wunderground v.1.15,2013-09-05 04:53:00,
2013-09-05 00:56:00,63.3,61.5,30.20,North,9,0.0,9.0,94,0.00,,,0.00,Wunderground v.1.15,2013-09-05 04:56:00,
2013-09-05 00:57:00,63.2,61.4,30.20,North,9,0.0,9.0,94,0.00,,,0.00,Wunderground v.1.15,2013-09-05 04:57:00,
2013-09-05 00:59:00,63.2,61.1,30.20,North,9,0.0,9.0,93,0.00,,,0.00,Wunderground v.1.15,2013-09-05 04:59:00,
2013-09-05 01:02:00,63.1,61.3,30.20,North,9,0.0,9.0,94,0.00,,,0.00,Wunderground v.1.15,2013-09-05 05:02:00,
2013-09-05 01:03:00,63.0,61.2,30.20,North,9,0.0,9.0,94,0.00,,,0.00,Wunderground v.1.15,2013-09-05 05:03:00,
2013-09-05 01:08:00,63.0,61.2,30.20,North,9,0.0,9.0,94,0.00,,,0.00,Wunderground v.1.15,2013-09-05 05:08:00,
2013-09-05 01:09:00,63.0,61.2,30.20,North,9,0.0,9.0,94,0.00,,,0.00,Wunderground v.1.15,2013-09-05 05:09:00,
2013-09-05 01:10:00,62.9,61.1,30.20,North,9,0.0,9.0,94,0.00,,,0.00,Wunderground v.1.15,2013-09-05 05:10:00,
2013-09-05 01:11:00,62.9,61.1,30.20,North,9,0.0,9.0,94,0.00,,,0.00,Wunderground v.1.15,2013-09-05 05:11:00,
2013-09-05 01:14:00,62.7,60.9,30.20,North,9,0.0,9.0,94,0.00,,,0.00,Wunderground v.1.15,2013-09-05 05:14:00,
2013-09-05 01:16:00,62.6,60.8,30.20,North,9,0.0,9.0,94,0.00,,,0.00,Wunderground v.1.15,2013-09-05 05:16:00,
2013-09-05 01:18:00,62.5,60.7,30.20,North,9,0.0,9.0,94,0.00,,,0.00,Wunderground v.1.15,2013-09-05 05:18:00,
2013-09-05 01:19:00,62.5,60.7,30.20,North,9,0.0,9.0,94,0.00,,,0.00,Wunderground v.1.15,2013-09-05 05:19:00,
2013-09-05 01:21:00,62.5,60.7,30.20,North,9,0.0,9.0,94,0.00,,,0.00,Wunderground v.1.15,2013-09-05 05:21:00,
2013-09-05 01:22:00,62.4,60.7,30.20,North,9,0.0,9.0,94,0.00,,,0.00,Wunderground v.1.15,2013-09-05 05:22:00,
2013-09-05 01:23:00,62.4,60.7,30.20,North,9,0.0,9.0,94,0.00,,,0.00,Wunderground v.1.15,2013-09-05 05:23:00,
2013-09-05 01:25:00,62.3,60.8,30.20,North,9,0.0,9.0,95,0.00,,,0.00,Wunderground v.1.15,2013-09-05 05:25:00,
2013-09-05 01:26:00,62.3,60.8,30.20,North,9,0.0,9.0,95,0.00,,,0.00,Wunderground v.1.15,2013-09-05 05:26:00,
2013-09-05 01:30:00,62.2,60.8,30.20,North,9,0.0,9.0,95,0.00,,,0.00,Wunderground v.1.15,2013-09-05 05:30:00,
2013-09-05 01:31:00,62.2,60.8,30.20,North,9,0.0,9.0,95,0.00,,,0.00,Wunderground v.1.15,2013-09-05 05:31:00,
2013-09-05 01:33:00,62.2,60.8,30.20,North,9,0.0,9.0,95,0.00,,,0.00,Wunderground v.1.15,2013-09-05 05:33:00,
2013-09-05 01:36:00,62.2,60.8,30.20,North,9,0.0,9.0,95,0.00,,,0.00,Wunderground v.1.15,2013-09-05 05:36:00,
2013-09-05 01:38:00,62.1,60.7,30.20,North,9,0.0,9.0,95,0.00,,,0.00,Wunderground v.1.15,2013-09-05 05:38:00,
2013-09-05 01:40:00,62.1,60.7,30.20,North,9,0.0,9.0,95,0.00,,,0.00,Wunderground v.1.15,2013-09-05 05:40:00,
2013-09-05 01:41:00,62.1,60.7,30.20,North,9,0.0,9.0,95,0.00,,,0.00,Wunderground v.1.15,2013-09-05 05:41:00,
2013-09-05 01:44:00,62.1,60.9,30.20,North,9,0.0,9.0,96,0.00,,,0.00,Wunderground v.1.15,2013-09-05 05:44:00,
2013-09-05 01:47:00,62.2,61.0,30.20,North,9,0.0,9.0,96,0.00,,,0.00,Wunderground v.1.15,2013-09-05 05:47:00,
2013-09-05 01:48:00,62.2,61.0,30.20,North,9,0.0,9.0,96,0.00,,,0.00,Wunderground v.1.15,2013-09-05 05:48:00,
2013-09-05 01:49:00,62.2,61.0,30.20,North,9,0.0,9.0,96,0.00,,,0.00,Wunderground v.1.15,2013-09-05 05:49:00,
2013-09-05 01:50:00,62.2,61.0,30.20,North,9,0.0,9.0,96,0.00,,,0.00,Wunderground v.1.15,2013-09-05 05:50:00,
2013-09-05 01:51:00,62.2,61.0,30.20,North,9,0.0,9.0,96,0.00,,,0.00,Wunderground v.1.15,2013-09-05 05:51:00,
2013-09-05 01:53:00,62.2,61.0,30.20,North,9,0.0,9.0,96,0.00,,,0.00,Wunderground v.1.15,2013-09-05 05:53:00,
2013-09-05 01:55:00,62.1,60.9,30.20,North,9,0.0,9.0,96,0.00,,,0.00,Wunderground v.1.15,2013-09-05 05:55:00,
2013-09-05 01:56:00,62.1,60.9,30.20,North,9,0.0,9.0,96,0.00,,,0.00,Wunderground v.1.15,2013-09-05 05:56:00,
2013-09-05 01:57:00,62.1,60.9,30.20,North,9,0.0,9.0,96,0.00,,,0.00,Wunderground v.1.15,2013-09-05 05:57:00,
2013-09-05 01:59:00,62.0,60.8,30.20,North,9,0.0,9.0,96,0.00,,,0.00,Wunderground v.1.15,2013-09-05 05:59:00,
2013-09-05 02:01:00,62.0,60.8,30.20,North,9,0.0,9.0,96,0.00,,,0.00,Wunderground v.1.15,2013-09-05 06:01:00,
2013-09-05 02:03:00,62.1,60.9,30.20,North,9,0.0,9.0,96,0.00,,,0.00,Wunderground v.1.15,2013-09-05 06:03:00,
2013-09-05 02:04:00,62.1,61.2,30.20,North,9,0.0,9.0,97,0.00,,,0.00,Wunderground v.1.15,2013-09-05 06:04:00,
2013-09-05 02:08:00,62.3,61.4,30.20,North,9,0.0,9.0,97,0.00,,,0.00,Wunderground v.1.15,2013-09-05 06:08:00,
2013-09-05 02:09:00,62.3,61.4,30.20,North,9,0.0,9.0,97,0.00,,,0.00,Wunderground v.1.15,2013-09-05 06:09:00,
2013-09-05 02:11:00,62.3,61.4,30.20,North,9,0.0,9.0,97,0.00,,,0.00,Wunderground v.1.15,2013-09-05 06:11:00,
2013-09-05 02:12:00,62.3,61.4,30.20,North,9,0.0,9.0,97,0.00,,,0.00,Wunderground v.1.15,2013-09-05 06:12:00,
2013-09-05 02:13:00,62.3,61.4,30.19,North,9,0.0,9.0,97,0.00,,,0.00,Wunderground v.1.15,2013-09-05 06:13:00,
2013-09-05 02:18:00,62.3,61.4,30.20,North,9,0.0,9.0,97,0.00,,,0.00,Wunderground v.1.15,2013-09-05 06:18:00,
2013-09-05 02:19:00,62.4,61.5,30.20,North,9,0.0,9.0,97,0.00,,,0.00,Wunderground v.1.15,2013-09-05 06:19:00,
2013-09-05 02:20:00,62.4,61.5,30.20,North,9,0.0,9.0,97,0.00,,,0.00,Wunderground v.1.15,2013-09-05 06:20:00,
2013-09-05 02:21:00,62.4,61.5,30.20,North,9,0.0,9.0,97,0.00,,,0.00,Wunderground v.1.15,2013-09-05 06:21:00,
2013-09-05 02:24:00,62.4,61.5,30.19,North,9,0.0,9.0,97,0.00,,,0.00,Wunderground v.1.15,2013-09-05 06:24:00,
2013-09-05 02:26:00,62.4,61.5,30.19,North,9,0.0,9.0,97,0.00,,,0.00,Wunderground v.1.15,2013-09-05 06:26:00,
2013-09-05 02:28:00,62.4,61.5,30.20,North,9,0.0,9.0,97,0.00,,,0.00,Wunderground v.1.15,2013-09-05 06:28:00,
2013-09-05 02:31:00,62.3,61.4,30.20,North,9,0.0,9.0,97,0.00,,,0.00,Wunderground v.1.15,2013-09-05 06:31:00,
2013-09-05 02:32:00,62.3,61.4,30.20,North,9,0.0,9.0,97,0.00,,,0.00,Wunderground v.1.15,2013-09-05 06:32:00,
2013-09-05 02:35:00,62.3,61.4,30.19,North,9,0.0,9.0,97,0.00,,,0.00,Wunderground v.1.15,2013-09-05 06:35:00,
2013-09-05 02:37:00,62.3,61.4,30.20,North,9,0.0,9.0,97,0.00,,,0.00,Wunderground v.1.15,2013-09-05 06:37:00,
2013-09-05 02:38:00,62.3,61.4,30.19,North,9,0.0,9.0,97,0.00,,,0.00,Wunderground v.1.15,2013-09-05 06:38:00,
2013-09-05 02:39:00,62.3,61.4,30.19,North,9,0.0,9.0,97,0.00,,,0.00,Wunderground v.1.15,2013-09-05 06:39:00,
2013-09-05 02:42:00,62.4,61.5,30.19,North,9,0.0,9.0,97,0.00,,,0.00,Wunderground v.1.15,2013-09-05 06:42:00,
2013-09-05 02:44:00,62.3,61.4,30.19,North,9,0.0,9.0,97,0.00,,,0.00,Wunderground v.1.15,2013-09-05 06:44:00,
2013-09-05 02:46:00,62.4,61.5,30.19,North,9,0.0,9.0,97,0.00,,,0.00,Wunderground v.1.15,2013-09-05 06:46:00,
2013-09-05 02:48:00,62.3,61.4,30.19,North,9,0.0,9.0,97,0.00,,,0.00,Wunderground v.1.15,2013-09-05 06:48:00,
2013-09-05 02:49:00,62.3,61.4,30.19,North,9,0.0,9.0,97,0.00,,,0.00,Wunderground v.1.15,2013-09-05 06:49:00,
2013-09-05 02:50:00,62.3,61.4,30.19,North,9,0.0,9.0,97,0.00,,,0.00,Wunderground v.1.15,2013-09-05 06:50:00,
2013-09-05 02:52:00,62.3,61.4,30.19,North,9,0.0,9.0,97,0.00,,,0.00,Wunderground v.1.15,2013-09-05 06:52:00,
2013-09-05 02:54:00,62.2,61.3,30.19,North,9,0.0,9.0,97,0.00,,,0.00,Wunderground v.1.15,2013-09-05 06:54:00,
2013-09-05 02:56:00,62.3,61.4,30.19,North,9,0.0,9.0,97,0.00,,,0.00,Wunderground v.1.15,2013-09-05 06:56:00,
2013-09-05 02:58:00,62.3,61.7,30.19,North,9,0.0,9.0,98,0.00,,,0.00,Wunderground v.1.15,2013-09-05 06:58:00,
2013-09-05 02:59:00,62.3,61.7,30.19,North,9,0.0,9.0,98,0.00,,,0.00,Wunderground v.1.15,2013-09-05 06:59:00,
2013-09-05 03:01:00,62.3,61.7,30.19,North,9,0.0,9.0,98,0.00,,,0.00,Wunderground v.1.15,2013-09-05 07:01:00,
2013-09-05 03:03:00,62.2,61.3,30.19,North,9,0.0,9.0,97,0.00,,,0.00,Wunderground v.1.15,2013-09-05 07:03:00,
2013-09-05 03:05:00,62.2,61.3,30.19,North,9,0.0,9.0,97,0.00,,,0.00,Wunderground v.1.15,2013-09-05 07:05:00,
2013-09-05 03:06:00,62.1,61.2,30.19,North,9,0.0,9.0,97,0.00,,,0.00,Wunderground v.1.15,2013-09-05 07:06:00,
2013-09-05 03:07:00,62.1,61.2,30.19,North,9,0.0,9.0,97,0.00,,,0.00,Wunderground v.1.15,2013-09-05 07:07:00,
2013-09-05 03:09:00,62.1,61.5,30.19,North,9,0.0,9.0,98,0.00,,,0.00,Wunderground v.1.15,2013-09-05 07:09:00,
2013-09-05 03:12:00,62.0,61.4,30.19,North,9,0.0,9.0,98,0.00,,,0.00,Wunderground v.1.15,2013-09-05 07:12:00,
2013-09-05 03:17:00,62.0,61.4,30.19,North,9,0.0,9.0,98,0.00,,,0.00,Wunderground v.1.15,2013-09-05 07:17:00,
2013-09-05 03:18:00,62.0,61.4,30.19,North,9,0.0,9.0,98,0.00,,,0.00,Wunderground v.1.15,2013-09-05 07:18:00,
2013-09-05 03:20:00,62.0,61.4,30.19,North,9,0.0,9.0,98,0.00,,,0.00,Wunderground v.1.15,2013-09-05 07:20:00,
2013-09-05 03:22:00,62.0,61.4,30.19,North,9,0.0,9.0,98,0.00,,,0.00,Wunderground v.1.15,2013-09-05 07:22:00,
2013-09-05 03:23:00,62.0,61.4,30.19,North,9,0.0,9.0,98,0.00,,,0.00,Wunderground v.1.15,2013-09-05 07:23:00,
2013-09-05 03:25:00,62.0,61.4,30.19,North,9,0.0,9.0,98,0.00,,,0.00,Wunderground v.1.15,2013-09-05 07:25:00,
2013-09-05 03:26:00,61.9,61.3,30.19,North,9,0.0,9.0,98,0.00,,,0.00,Wunderground v.1.15,2013-09-05 07:26:00,
2013-09-05 03:27:00,62.0,61.4,30.19,North,9,0.0,9.0,98,0.00,,,0.00,Wunderground v.1.15,2013-09-05 07:27:00,
2013-09-05 03:31:00,61.9,61.3,30.19,North,9,0.0,9.0,98,0.00,,,0.00,Wunderground v.1.15,2013-09-05 07:31:00,
2013-09-05 03:32:00,61.9,61.3,30.19,North,9,0.0,9.0,98,0.00,,,0.00,Wunderground v.1.15,2013-09-05 07:32:00,
2013-09-05 03:34:00,61.9,61.3,30.19,North,9,0.0,9.0,98,0.00,,,0.00,Wunderground v.1.15,2013-09-05 07:34:00,
2013-09-05 03:35:00,61.9,61.3,30.19,North,9,0.0,9.0,98,0.00,,,0.00,Wunderground v.1.15,2013-09-05 07:35:00,
2013-09-05 03:40:00,61.7,61.1,30.19,North,9,0.0,9.0,98,0.00,,,0.00,Wunderground v.1.15,2013-09-05 07:40:00,
2013-09-05 03:41:00,61.7,61.1,30.19,North,9,0.0,9.0,98,0.00,,,0.00,Wunderground v.1.15,2013-09-05 07:41:00,
2013-09-05 03:44:00,61.6,61.0,30.19,North,9,0.0,9.0,98,0.00,,,0.00,Wunderground v.1.15,2013-09-05 07:44:00,
2013-09-05 03:46:00,61.5,60.9,30.19,North,9,0.0,9.0,98,0.00,,,0.00,Wunderground v.1.15,2013-09-05 07:46:00,
2013-09-05 03:48:00,61.5,60.9,30.19,North,9,0.0,9.0,98,0.00,,,0.00,Wunderground v.1.15,2013-09-05 07:48:00,
2013-09-05 03:50:00,61.5,60.9,30.19,North,9,0.0,9.0,98,0.00,,,0.00,Wunderground v.1.15,2013-09-05 07:50:00,
2013-09-05 03:52:00,61.4,60.8,30.19,North,9,0.0,9.0,98,0.00,,,0.00,Wunderground v.1.15,2013-09-05 07:52:00,
2013-09-05 03:53:00,61.3,60.7,30.19,North,9,0.0,9.0,98,0.00,,,0.00,Wunderground v.1.15,2013-09-05 07:53:00,
2013-09-05 03:54:00,61.3,60.7,30.19,North,9,0.0,9.0,98,0.00,,,0.00,Wunderground v.1.15,2013-09-05 07:54:00,
2013-09-05 03:56:00,61.3,60.7,30.19,North,9,0.0,9.0,98,0.00,,,0.00,Wunderground v.1.15,2013-09-05 07:56:00,
2013-09-05 03:58:00,61.1,60.2,30.19,North,9,0.0,9.0,97,0.00,,,0.00,Wunderground v.1.15,2013-09-05 07:58:00,
2013-09-05 03:59:00,61.1,60.2,30.19,North,9,0.0,9.0,97,0.00,,,0.00,Wunderground v.1.15,2013-09-05 07:59:00,
2013-09-05 04:02:00,60.9,60.0,30.19,North,9,0.0,9.0,97,0.00,,,0.00,Wunderground v.1.15,2013-09-05 08:02:00,
2013-09-05 04:05:00,60.8,59.9,30.19,North,9,0.0,9.0,97,0.00,,,0.00,Wunderground v.1.15,2013-09-05 08:05:00,
2013-09-05 04:06:00,60.7,59.8,30.19,North,9,0.0,9.0,97,0.00,,,0.00,Wunderground v.1.15,2013-09-05 08:06:00,
2013-09-05 04:07:00,60.7,60.1,30.19,North,9,0.0,9.0,98,0.00,,,0.00,Wunderground v.1.15,2013-09-05 08:07:00,
2013-09-05 04:08:00,60.7,59.8,30.19,North,9,0.0,9.0,97,0.00,,,0.00,Wunderground v.1.15,2013-09-05 08:08:00,
2013-09-05 04:14:00,60.7,60.1,30.20,North,9,0.0,9.0,98,0.00,,,0.00,Wunderground v.1.15,2013-09-05 08:14:00,
2013-09-05 04:15:00,60.7,60.1,30.20,North,9,0.0,9.0,98,0.00,,,0.00,Wunderground v.1.15,2013-09-05 08:15:00,
2013-09-05 04:17:00,60.6,60.0,30.20,North,9,0.0,9.0,98,0.00,,,0.00,Wunderground v.1.15,2013-09-05 08:17:00,
2013-09-05 04:18:00,60.6,60.0,30.20,North,9,0.0,9.0,98,0.00,,,0.00,Wunderground v.1.15,2013-09-05 08:18:00,
2013-09-05 04:19:00,60.6,60.0,30.20,North,9,0.0,9.0,98,0.00,,,0.00,Wunderground v.1.15,2013-09-05 08:19:00,
2013-09-05 04:21:00,60.6,60.0,30.20,North,9,0.0,9.0,98,0.00,,,0.00,Wunderground v.1.15,2013-09-05 08:21:00,
2013-09-05 04:24:00,60.5,59.9,30.20,North,9,0.0,9.0,98,0.00,,,0.00,Wunderground v.1.15,2013-09-05 08:24:00,
2013-09-05 04:25:00,60.5,59.9,30.20,North,9,0.0,9.0,98,0.00,,,0.00,Wunderground v.1.15,2013-09-05 08:25:00,
2013-09-05 04:29:00,60.5,59.9,30.20,North,9,0.0,9.0,98,0.00,,,0.00,Wunderground v.1.15,2013-09-05 08:29:00,
2013-09-05 04:30:00,60.6,60.0,30.20,North,9,0.0,9.0,98,0.00,,,0.00,Wunderground v.1.15,2013-09-05 08:30:00,
2013-09-05 04:35:00,60.4,59.8,30.20,North,9,0.0,9.0,98,0.00,,,0.00,Wunderground v.1.15,2013-09-05 08:35:00,
2013-09-05 04:37:00,60.3,59.7,30.20,North,9,0.0,9.0,98,0.00,,,0.00,Wunderground v.1.15,2013-09-05 08:37:00,
2013-09-05 04:40:00,60.5,59.9,30.20,North,9,0.0,9.0,98,0.00,,,0.00,Wunderground v.1.15,2013-09-05 08:40:00,
2013-09-05 04:44:00,60.8,60.2,30.20,North,9,0.0,9.0,98,0.00,,,0.00,Wunderground v.1.15,2013-09-05 08:44:00,
2013-09-05 04:45:00,60.9,60.3,30.20,North,9,0.0,9.0,98,0.00,,,0.00,Wunderground v.1.15,2013-09-05 08:45:00,
2013-09-05 04:47:00,61.0,60.4,30.20,North,9,0.0,9.0,98,0.00,,,0.00,Wunderground v.1.15,2013-09-05 08:47:00,
2013-09-05 04:51:00,61.1,60.8,30.20,North,9,0.0,9.0,99,0.00,,,0.00,Wunderground v.1.15,2013-09-05 08:51:00,
2013-09-05 04:53:00,61.1,60.8,30.20,North,9,0.0,9.0,99,0.00,,,0.00,Wunderground v.1.15,2013-09-05 08:53:00,
2013-09-05 04:54:00,61.1,60.5,30.20,North,9,0.0,9.0,98,0.00,,,0.00,Wunderground v.1.15,2013-09-05 08:54:00,
2013-09-05 04:57:00,61.0,60.4,30.20,North,9,0.0,9.0,98,0.00,,,0.00,Wunderground v.1.15,2013-09-05 08:57:00,
2013-09-05 04:59:00,60.9,60.3,30.20,North,9,0.0,9.0,98,0.00,,,0.00,Wunderground v.1.15,2013-09-05 08:59:00,
2013-09-05 05:02:00,60.8,60.2,30.20,North,9,0.0,9.0,98,0.00,,,0.00,Wunderground v.1.15,2013-09-05 09:02:00,
2013-09-05 05:03:00,60.7,60.1,30.20,North,9,0.0,9.0,98,0.00,,,0.00,Wunderground v.1.15,2013-09-05 09:03:00,
2013-09-05 05:04:00,60.7,60.1,30.20,North,9,0.0,9.0,98,0.00,,,0.00,Wunderground v.1.15,2013-09-05 09:04:00,
2013-09-05 05:08:00,60.5,59.9,30.20,North,9,0.0,9.0,98,0.00,,,0.00,Wunderground v.1.15,2013-09-05 09:08:00,
2013-09-05 05:09:00,60.5,59.9,30.20,North,9,0.0,9.0,98,0.00,,,0.00,Wunderground v.1.15,2013-09-05 09:09:00,
2013-09-05 05:10:00,60.5,59.9,30.20,North,9,0.0,9.0,98,0.00,,,0.00,Wunderground v.1.15,2013-09-05 09:10:00,
2013-09-05 05:13:00,60.4,59.8,30.20,North,9,0.0,9.0,98,0.00,,,0.00,Wunderground v.1.15,2013-09-05 09:13:00,
2013-09-05 05:14:00,60.4,59.8,30.20,North,9,0.0,9.0,98,0.00,,,0.00,Wunderground v.1.15,2013-09-05 09:14:00,
2013-09-05 05:16:00,60.4,59.8,30.20,North,9,0.0,9.0,98,0.00,,,0.00,Wunderground v.1.15,2013-09-05 09:16:00,
2013-09-05 05:18:00,60.3,59.7,30.20,North,9,0.0,9.0,98,0.00,,,0.00,Wunderground v.1.15,2013-09-05 09:18:00,
2013-09-05 05:19:00,60.3,59.7,30.20,North,9,0.0,9.0,98,0.00,,,0.00,Wunderground v.1.15,2013-09-05 09:19:00,
2013-09-05 05:22:00,60.3,59.7,30.20,North,9,0.0,9.0,98,0.00,,,0.00,Wunderground v.1.15,2013-09-05 09:22:00,
2013-09-05 05:25:00,60.3,59.7,30.20,North,9,0.0,9.0,98,0.00,,,0.00,Wunderground v.1.15,2013-09-05 09:25:00,
2013-09-05 05:26:00,60.3,59.7,30.20,North,9,0.0,9.0,98,0.00,,,0.00,Wunderground v.1.15,2013-09-05 09:26:00,
2013-09-05 05:27:00,60.3,59.7,30.20,North,9,0.0,9.0,98,0.00,,,0.00,Wunderground v.1.15,2013-09-05 09:27:00,
2013-09-05 05:29:00,60.2,59.6,30.20,North,9,0.0,9.0,98,0.00,,,0.00,Wunderground v.1.15,2013-09-05 09:29:00,
2013-09-05 05:30:00,60.1,59.5,30.20,North,9,0.0,9.0,98,0.00,,,0.00,Wunderground v.1.15,2013-09-05 09:30:00,
2013-09-05 05:33:00,60.0,59.4,30.20,North,9,0.0,9.0,98,0.00,,,0.00,Wunderground v.1.15,2013-09-05 09:33:00,
2013-09-05 05:34:00,60.0,59.4,30.20,North,9,0.0,9.0,98,0.00,,,0.00,Wunderground v.1.15,2013-09-05 09:34:00,
2013-09-05 05:36:00,60.1,59.5,30.20,North,9,0.0,9.0,98,0.00,,,0.00,Wunderground v.1.15,2013-09-05 09:36:00,
2013-09-05 05:38:00,60.2,59.6,30.20,North,9,0.0,9.0,98,0.00,,,0.00,Wunderground v.1.15,2013-09-05 09:38:00,
2013-09-05 05:39:00,60.2,59.6,30.20,North,9,0.0,9.0,98,0.00,,,0.00,Wunderground v.1.15,2013-09-05 09:39:00,
2013-09-05 05:42:00,60.2,59.6,30.20,North,9,0.0,9.0,98,0.00,,,0.00,Wunderground v.1.15,2013-09-05 09:42:00,
2013-09-05 05:45:00,60.3,59.7,30.20,North,9,0.0,9.0,98,0.00,,,0.00,Wunderground v.1.15,2013-09-05 09:45:00,
2013-09-05 05:46:00,60.2,59.6,30.20,North,9,0.0,9.0,98,0.00,,,0.00,Wunderground v.1.15,2013-09-05 09:46:00,
2013-09-05 05:47:00,60.2,59.6,30.20,North,9,0.0,9.0,98,0.00,,,0.00,Wunderground v.1.15,2013-09-05 09:47:00,
2013-09-05 05:48:00,60.2,59.6,30.20,North,9,0.0,9.0,98,0.00,,,0.00,Wunderground v.1.15,2013-09-05 09:48:00,
2013-09-05 05:53:00,60.1,59.5,30.20,North,9,0.0,9.0,98,0.00,,,0.00,Wunderground v.1.15,2013-09-05 09:53:00,
2013-09-05 05:54:00,60.1,59.5,30.20,North,9,0.0,9.0,98,0.00,,,0.00,Wunderground v.1.15,2013-09-05 09:54:00,
2013-09-05 05:57:00,60.2,59.6,30.20,North,9,0.0,9.0,98,0.00,,,0.00,Wunderground v.1.15,2013-09-05 09:57:00,
2013-09-05 05:58:00,60.2,59.6,30.20,North,9,0.0,9.0,98,0.00,,,0.00,Wunderground v.1.15,2013-09-05 09:58:00,
2013-09-05 05:59:00,60.3,59.7,30.20,North,9,0.0,9.0,98,0.00,,,0.00,Wunderground v.1.15,2013-09-05 09:59:00,
2013-09-05 06:02:00,60.2,59.6,30.20,North,9,0.0,9.0,98,0.00,,,0.00,Wunderground v.1.15,2013-09-05 10:02:00,
2013-09-05 06:03:00,60.2,59.6,30.20,North,9,0.0,9.0,98,0.00,,,0.00,Wunderground v.1.15,2013-09-05 10:03:00,
2013-09-05 06:06:00,60.1,59.5,30.20,North,9,0.0,9.0,98,0.00,,,0.00,Wunderground v.1.15,2013-09-05 10:06:00,
2013-09-05 06:07:00,60.1,59.5,30.20,North,9,0.0,9.0,98,0.00,,,0.00,Wunderground v.1.15,2013-09-05 10:07:00,
2013-09-05 06:10:00,60.0,59.4,30.20,North,9,0.0,9.0,98,0.00,,,0.00,Wunderground v.1.15,2013-09-05 10:10:00,
2013-09-05 06:11:00,59.9,59.3,30.21,North,9,0.0,9.0,98,0.00,,,0.00,Wunderground v.1.15,2013-09-05 10:11:00,
2013-09-05 06:12:00,59.9,59.3,30.21,North,9,0.0,9.0,98,0.00,,,0.00,Wunderground v.1.15,2013-09-05 10:12:00,
2013-09-05 06:15:00,59.8,59.2,30.21,North,9,0.0,9.0,98,0.00,,,0.00,Wunderground v.1.15,2013-09-05 10:15:00,
2013-09-05 06:17:00,59.7,59.1,30.21,North,9,0.0,9.0,98,0.00,,,0.00,Wunderground v.1.15,2013-09-05 10:17:00,
2013-09-05 06:20:00,59.6,59.0,30.21,North,9,0.0,9.0,98,0.00,,,0.00,Wunderground v.1.15,2013-09-05 10:20:00,
2013-09-05 06:21:00,59.6,59.0,30.21,North,9,0.0,9.0,98,0.00,,,0.00,Wunderground v.1.15,2013-09-05 10:21:00,
2013-09-05 06:22:00,59.6,59.0,30.21,North,9,0.0,9.0,98,0.00,,,0.00,Wunderground v.1.15,2013-09-05 10:22:00,
2013-09-05 06:24:00,59.6,59.0,30.21,North,9,0.0,9.0,98,0.00,,,0.00,Wunderground v.1.15,2013-09-05 10:24:00,
2013-09-05 06:25:00,59.5,58.9,30.21,North,9,0.0,9.0,98,0.00,,,0.00,Wunderground v.1.15,2013-09-05 10:25:00,
2013-09-05 06:26:00,59.4,58.8,30.21,North,9,0.0,9.0,98,0.00,,,0.00,Wunderground v.1.15,2013-09-05 10:26:00,
2013-09-05 06:28:00,59.4,58.8,30.21,North,9,0.0,9.0,98,0.00,,,0.00,Wunderground v.1.15,2013-09-05 10:28:00,
2013-09-05 06:29:00,59.4,58.8,30.21,North,9,0.0,9.0,98,0.00,,,0.00,Wunderground v.1.15,2013-09-05 10:29:00,
2013-09-05 06:33:00,59.2,58.6,30.21,North,9,0.0,9.0,98,0.00,,,0.00,Wunderground v.1.15,2013-09-05 10:33:00,
2013-09-05 06:34:00,59.2,58.6,30.21,North,9,0.0,9.0,98,0.00,,,0.00,Wunderground v.1.15,2013-09-05 10:34:00,
2013-09-05 06:35:00,59.2,58.6,30.21,North,9,0.0,9.0,98,0.00,,,0.00,Wunderground v.1.15,2013-09-05 10:35:00,
2013-09-05 06:36:00,59.2,58.6,30.22,North,9,0.0,9.0,98,0.00,,,0.00,Wunderground v.1.15,2013-09-05 10:36:00,
2013-09-05 06:40:00,59.2,58.6,30.22,North,9,0.0,9.0,98,0.00,,,0.00,Wunderground v.1.15,2013-09-05 10:40:00,
2013-09-05 06:42:00,59.3,59.0,30.21,North,9,0.0,9.0,99,0.00,,,0.00,Wunderground v.1.15,2013-09-05 10:42:00,
2013-09-05 06:43:00,59.4,59.1,30.22,North,9,0.0,9.0,99,0.00,,,0.01,Wunderground v.1.15,2013-09-05 10:43:00,
2013-09-05 06:44:00,59.4,59.1,30.22,North,9,0.0,9.0,99,0.00,,,0.01,Wunderground v.1.15,2013-09-05 10:44:00,
2013-09-05 06:47:00,59.6,59.3,30.22,North,9,0.0,9.0,99,0.00,,,0.01,Wunderground v.1.15,2013-09-05 10:47:00,
2013-09-05 06:48:00,59.6,59.3,30.22,North,9,0.0,9.0,99,0.00,,,0.01,Wunderground v.1.15,2013-09-05 10:48:00,
2013-09-05 06:50:00,59.6,59.3,30.21,North,9,0.0,9.0,99,0.00,,,0.01,Wunderground v.1.15,2013-09-05 10:50:00,
2013-09-05 06:52:00,59.6,59.3,30.22,North,9,0.0,9.0,99,0.00,,,0.01,Wunderground v.1.15,2013-09-05 10:52:00,
2013-09-05 06:53:00,59.6,59.3,30.22,North,9,0.0,9.0,99,0.00,,,0.01,Wunderground v.1.15,2013-09-05 10:53:00,
2013-09-05 06:54:00,59.6,59.0,30.22,North,9,0.0,9.0,98,0.00,,,0.01,Wunderground v.1.15,2013-09-05 10:54:00,
2013-09-05 06:56:00,59.6,59.3,30.22,North,9,0.0,9.0,99,0.00,,,0.01,Wunderground v.1.15,2013-09-05 10:56:00,
2013-09-05 06:59:00,59.5,59.2,30.22,North,9,0.0,9.0,99,0.00,,,0.01,Wunderground v.1.15,2013-09-05 10:59:00,
2013-09-05 07:01:00,59.5,58.9,30.22,North,9,0.0,9.0,98,0.00,,,0.01,Wunderground v.1.15,2013-09-05 11:01:00,
2013-09-05 07:05:00,59.6,59.3,30.22,North,9,0.0,9.0,99,0.00,,,0.01,Wunderground v.1.15,2013-09-05 11:05:00,
2013-09-05 07:07:00,59.8,59.5,30.22,North,9,0.0,9.0,99,0.00,,,0.01,Wunderground v.1.15,2013-09-05 11:07:00,
2013-09-05 07:08:00,59.8,59.5,30.22,North,9,0.0,9.0,99,0.00,,,0.01,Wunderground v.1.15,2013-09-05 11:08:00,
2013-09-05 07:12:00,59.6,59.3,30.22,North,9,0.0,9.0,99,0.00,,,0.01,Wunderground v.1.15,2013-09-05 11:12:00,
2013-09-05 07:18:00,59.3,59.0,30.22,North,9,0.0,9.0,99,0.00,,,0.01,Wunderground v.1.15,2013-09-05 11:18:00,
2013-09-05 07:19:00,59.2,58.9,30.22,North,9,0.0,9.0,99,0.00,,,0.01,Wunderground v.1.15,2013-09-05 11:19:00,
2013-09-05 07:20:00,59.1,58.8,30.22,North,9,0.0,9.0,99,0.00,,,0.01,Wunderground v.1.15,2013-09-05 11:20:00,
2013-09-05 07:21:00,59.0,58.4,30.22,North,9,0.0,9.0,98,0.00,,,0.01,Wunderground v.1.15,2013-09-05 11:21:00,
2013-09-05 07:26:00,58.6,58.0,30.23,North,9,0.0,9.0,98,0.00,,,0.01,Wunderground v.1.15,2013-09-05 11:26:00,
2013-09-05 07:27:00,58.6,58.0,30.22,North,9,0.0,9.0,98,0.00,,,0.01,Wunderground v.1.15,2013-09-05 11:27:00,
2013-09-05 07:28:00,58.6,58.0,30.23,North,9,0.0,9.0,98,0.00,,,0.01,Wunderground v.1.15,2013-09-05 11:28:00,
2013-09-05 07:29:00,58.5,58.2,30.23,North,9,0.0,9.0,99,0.00,,,0.01,Wunderground v.1.15,2013-09-05 11:29:00,
2013-09-05 07:30:00,58.5,57.9,30.23,North,9,0.0,9.0,98,0.00,,,0.01,Wunderground v.1.15,2013-09-05 11:30:00,
2013-09-05 07:33:00,58.5,57.9,30.23,North,9,0.0,9.0,98,0.00,,,0.01,Wunderground v.1.15,2013-09-05 11:33:00,
2013-09-05 07:34:00,58.5,57.9,30.23,North,9,0.0,9.0,98,0.00,,,0.01,Wunderground v.1.15,2013-09-05 11:34:00,
2013-09-05 07:35:00,58.5,58.2,30.23,North,9,0.0,9.0,99,0.00,,,0.01,Wunderground v.1.15,2013-09-05 11:35:00,
2013-09-05 07:37:00,58.5,58.2,30.23,North,9,0.0,9.0,99,0.00,,,0.01,Wunderground v.1.15,2013-09-05 11:37:00,
2013-09-05 07:38:00,58.5,58.2,30.23,North,9,0.0,9.0,99,0.00,,,0.01,Wunderground v.1.15,2013-09-05 11:38:00,
2013-09-05 07:40:00,58.4,58.1,30.23,North,9,0.0,9.0,99,0.00,,,0.01,Wunderground v.1.15,2013-09-05 11:40:00,
2013-09-05 07:41:00,58.4,58.1,30.23,North,9,0.0,9.0,99,0.00,,,0.01,Wunderground v.1.15,2013-09-05 11:41:00,
2013-09-05 07:42:00,58.4,58.1,30.23,North,9,0.0,9.0,99,0.00,,,0.01,Wunderground v.1.15,2013-09-05 11:42:00,
2013-09-05 07:45:00,58.4,58.1,30.23,North,9,0.0,9.0,99,0.00,,,0.01,Wunderground v.1.15,2013-09-05 11:45:00,
2013-09-05 07:46:00,58.4,58.1,30.23,North,9,0.0,9.0,99,0.00,,,0.01,Wunderground v.1.15,2013-09-05 11:46:00,
2013-09-05 07:47:00,58.4,58.1,30.23,North,9,0.0,9.0,99,0.00,,,0.01,Wunderground v.1.15,2013-09-05 11:47:00,
2013-09-05 07:48:00,58.4,58.1,30.23,North,9,0.0,9.0,99,0.00,,,0.01,Wunderground v.1.15,2013-09-05 11:48:00,
2013-09-05 07:50:00,58.4,58.1,30.23,North,9,0.0,9.0,99,0.00,,,0.01,Wunderground v.1.15,2013-09-05 11:50:00,
2013-09-05 07:53:00,58.4,58.1,30.23,North,9,0.0,9.0,99,0.00,,,0.01,Wunderground v.1.15,2013-09-05 11:53:00,
2013-09-05 07:55:00,58.4,58.1,30.23,North,9,0.0,9.0,99,0.00,,,0.01,Wunderground v.1.15,2013-09-05 11:55:00,
2013-09-05 07:58:00,58.3,58.0,30.23,North,9,0.0,9.0,99,0.00,,,0.01,Wunderground v.1.15,2013-09-05 11:58:00,
2013-09-05 07:59:00,58.3,58.0,30.23,North,9,0.0,9.0,99,0.00,,,0.01,Wunderground v.1.15,2013-09-05 11:59:00,
2013-09-05 08:01:00,58.3,58.0,30.23,North,9,0.0,9.0,99,0.00,,,0.01,Wunderground v.1.15,2013-09-05 12:01:00,
2013-09-05 08:02:00,58.3,58.0,30.23,North,9,0.0,9.0,99,0.00,,,0.01,Wunderground v.1.15,2013-09-05 12:02:00,
2013-09-05 08:05:00,58.4,58.1,30.23,West,275,0.0,9.0,99,0.00,,,0.01,Wunderground v.1.15,2013-09-05 12:05:00,
2013-09-05 08:07:00,58.5,58.2,30.23,West,275,0.0,9.0,99,0.00,,,0.01,Wunderground v.1.15,2013-09-05 12:07:00,
2013-09-05 08:08:00,58.5,58.2,30.23,West,275,0.0,9.0,99,0.00,,,0.01,Wunderground v.1.15,2013-09-05 12:08:00,
2013-09-05 08:09:00,58.5,58.2,30.23,West,275,0.0,9.0,99,0.00,,,0.01,Wunderground v.1.15,2013-09-05 12:09:00,
2013-09-05 08:11:00,58.6,58.3,30.23,West,275,0.0,9.0,99,0.00,,,0.01,Wunderground v.1.15,2013-09-05 12:11:00,
2013-09-05 08:12:00,58.6,58.3,30.23,West,275,0.0,9.0,99,0.00,,,0.01,Wunderground v.1.15,2013-09-05 12:12:00,
2013-09-05 08:14:00,58.6,58.3,30.23,West,275,0.0,9.0,99,0.00,,,0.01,Wunderground v.1.15,2013-09-05 12:14:00,
2013-09-05 08:15:00,58.6,58.3,30.23,West,275,0.0,9.0,99,0.00,,,0.01,Wunderground v.1.15,2013-09-05 12:15:00,
2013-09-05 08:16:00,58.6,58.3,30.23,West,275,0.0,9.0,99,0.00,,,0.01,Wunderground v.1.15,2013-09-05 12:16:00,
2013-09-05 08:18:00,58.6,58.3,30.24,West,275,0.0,9.0,99,0.00,,,0.01,Wunderground v.1.15,2013-09-05 12:18:00,
2013-09-05 08:20:00,58.7,58.4,30.24,West,275,0.0,9.0,99,0.00,,,0.01,Wunderground v.1.15,2013-09-05 12:20:00,
2013-09-05 08:21:00,58.7,58.4,30.24,West,275,0.0,9.0,99,0.00,,,0.01,Wunderground v.1.15,2013-09-05 12:21:00,
2013-09-05 08:24:00,58.7,58.4,30.24,West,275,0.0,9.0,99,0.00,,,0.01,Wunderground v.1.15,2013-09-05 12:24:00,
2013-09-05 08:25:00,58.7,58.4,30.24,West,275,0.0,9.0,99,0.00,,,0.01,Wunderground v.1.15,2013-09-05 12:25:00,
2013-09-05 08:27:00,58.7,58.4,30.24,West,275,0.0,9.0,99,0.00,,,0.01,Wunderground v.1.15,2013-09-05 12:27:00,
2013-09-05 08:28:00,58.8,58.5,30.24,West,275,0.0,9.0,99,0.00,,,0.01,Wunderground v.1.15,2013-09-05 12:28:00,
2013-09-05 08:30:00,58.8,58.5,30.24,West,274,0.0,9.0,99,0.00,,,0.01,Wunderground v.1.15,2013-09-05 12:30:00,
2013-09-05 08:32:00,58.9,58.6,30.24,West,271,0.0,9.0,99,0.00,,,0.01,Wunderground v.1.15,2013-09-05 12:32:00,
2013-09-05 08:33:00,58.9,58.6,30.24,WSW,240,0.0,9.0,99,0.00,,,0.01,Wunderground v.1.15,2013-09-05 12:33:00,
2013-09-05 08:34:00,58.9,58.6,30.24,WSW,240,0.0,9.0,99,0.00,,,0.01,Wunderground v.1.15,2013-09-05 12:34:00,
2013-09-05 08:37:00,59.0,58.7,30.24,WSW,239,0.0,9.0,99,0.00,,,0.01,Wunderground v.1.15,2013-09-05 12:37:00,
2013-09-05 08:39:00,59.1,58.8,30.24,WSW,239,0.0,9.0,99,0.00,,,0.01,Wunderground v.1.15,2013-09-05 12:39:00,
2013-09-05 08:43:00,59.2,58.9,30.24,WSW,239,0.0,9.0,99,0.00,,,0.01,Wunderground v.1.15,2013-09-05 12:43:00,
2013-09-05 08:44:00,59.2,58.9,30.24,WSW,239,0.0,9.0,99,0.00,,,0.01,Wunderground v.1.15,2013-09-05 12:44:00,
2013-09-05 08:45:00,59.3,59.0,30.24,WSW,239,0.0,9.0,99,0.00,,,0.01,Wunderground v.1.15,2013-09-05 12:45:00,
2013-09-05 08:46:00,59.3,59.0,30.24,WSW,239,0.0,9.0,99,0.00,,,0.01,Wunderground v.1.15,2013-09-05 12:46:00,
2013-09-05 08:50:00,59.6,59.3,30.24,SW,232,0.0,9.0,99,0.00,,,0.01,Wunderground v.1.15,2013-09-05 12:50:00,
2013-09-05 08:51:00,59.7,59.4,30.24,SW,232,0.0,9.0,99,0.00,,,0.01,Wunderground v.1.15,2013-09-05 12:51:00,
2013-09-05 08:52:00,59.8,59.5,30.24,SW,232,0.0,9.0,99,0.00,,,0.01,Wunderground v.1.15,2013-09-05 12:52:00,
2013-09-05 08:53:00,59.9,59.6,30.24,SW,232,0.0,9.0,99,0.00,,,0.01,Wunderground v.1.15,2013-09-05 12:53:00,
2013-09-05 08:57:00,60.1,60.1,30.24,SW,232,0.0,9.0,100,0.00,,,0.01,Wunderground v.1.15,2013-09-05 12:57:00,
2013-09-05 08:59:00,60.2,60.2,30.24,SW,232,0.0,9.0,100,0.00,,,0.01,Wunderground v.1.15,2013-09-05 12:59:00,
2013-09-05 09:01:00,60.3,60.0,30.24,SW,232,0.0,9.0,99,0.00,,,0.01,Wunderground v.1.15,2013-09-05 13:01:00,
2013-09-05 09:04:00,60.5,60.2,30.24,SW,232,0.0,9.0,99,0.00,,,0.01,Wunderground v.1.15,2013-09-05 13:04:00,
2013-09-05 09:05:00,60.5,60.2,30.24,SW,232,0.0,9.0,99,0.00,,,0.01,Wunderground v.1.15,2013-09-05 13:05:00,
2013-09-05 09:07:00,60.6,60.3,30.25,SW,232,0.0,9.0,99,0.00,,,0.01,Wunderground v.1.15,2013-09-05 13:07:00,
2013-09-05 09:08:00,60.7,60.7,30.25,SW,232,0.0,9.0,100,0.00,,,0.01,Wunderground v.1.15,2013-09-05 13:08:00,
2013-09-05 09:11:00,60.8,60.8,30.24,SW,232,0.0,9.0,100,0.00,,,0.01,Wunderground v.1.15,2013-09-05 13:11:00,
2013-09-05 09:14:00,60.9,60.6,30.24,SW,232,0.0,9.0,99,0.00,,,0.01,Wunderground v.1.15,2013-09-05 13:14:00,
2013-09-05 09:16:00,61.0,60.7,30.24,SW,232,0.0,9.0,99,0.00,,,0.01,Wunderground v.1.15,2013-09-05 13:16:00,
2013-09-05 09:19:00,61.2,60.9,30.24,SW,232,0.0,9.0,99,0.00,,,0.01,Wunderground v.1.15,2013-09-05 13:19:00,
2013-09-05 09:20:00,61.2,60.9,30.25,SW,232,0.0,9.0,99,0.00,,,0.01,Wunderground v.1.15,2013-09-05 13:20:00,
2013-09-05 09:21:00,61.3,61.3,30.24,SW,232,0.0,9.0,100,0.00,,,0.01,Wunderground v.1.15,2013-09-05 13:21:00,
2013-09-05 09:22:00,61.3,61.3,30.24,SW,232,0.0,9.0,100,0.00,,,0.01,Wunderground v.1.15,2013-09-05 13:22:00,
2013-09-05 09:24:00,61.4,61.4,30.25,SW,232,0.0,9.0,100,0.00,,,0.01,Wunderground v.1.15,2013-09-05 13:24:00,
2013-09-05 09:26:00,61.6,61.6,30.25,SW,232,0.0,9.0,100,0.00,,,0.01,Wunderground v.1.15,2013-09-05 13:26:00,
2013-09-05 09:28:00,61.7,61.7,30.25,SW,232,0.0,9.0,100,0.00,,,0.01,Wunderground v.1.15,2013-09-05 13:28:00,
2013-09-05 09:29:00,61.8,61.8,30.25,SW,232,0.0,9.0,100,0.00,,,0.01,Wunderground v.1.15,2013-09-05 13:29:00,
2013-09-05 09:34:00,62.1,62.1,30.25,SW,232,0.0,9.0,100,0.00,,,0.01,Wunderground v.1.15,2013-09-05 13:34:00,
2013-09-05 09:35:00,62.1,62.1,30.25,SW,232,0.0,9.0,100,0.00,,,0.01,Wunderground v.1.15,2013-09-05 13:35:00,
2013-09-05 09:36:00,62.1,62.1,30.25,SW,232,0.0,9.0,100,0.00,,,0.01,Wunderground v.1.15,2013-09-05 13:36:00,
2013-09-05 09:39:00,62.2,61.9,30.25,SW,232,0.0,9.0,99,0.00,,,0.01,Wunderground v.1.15,2013-09-05 13:39:00,
2013-09-05 09:41:00,62.3,62.0,30.25,SW,232,0.0,9.0,99,0.00,,,0.01,Wunderground v.1.15,2013-09-05 13:41:00,
2013-09-05 09:42:00,62.4,62.1,30.25,SW,232,0.0,9.0,99,0.00,,,0.01,Wunderground v.1.15,2013-09-05 13:42:00,
2013-09-05 09:44:00,62.6,62.6,30.25,SW,232,0.0,9.0,100,0.00,,,0.01,Wunderground v.1.15,2013-09-05 13:44:00,
2013-09-05 09:46:00,62.7,62.7,30.25,SW,232,0.0,9.0,100,0.00,,,0.01,Wunderground v.1.15,2013-09-05 13:46:00,
2013-09-05 09:49:00,62.8,62.5,30.25,SW,232,0.0,9.0,99,0.00,,,0.01,Wunderground v.1.15,2013-09-05 13:49:00,
2013-09-05 09:50:00,62.9,62.6,30.25,SW,232,0.0,9.0,99,0.00,,,0.01,Wunderground v.1.15,2013-09-05 13:50:00,
2013-09-05 09:51:00,62.9,62.6,30.25,SW,232,0.0,9.0,99,0.00,,,0.01,Wunderground v.1.15,2013-09-05 13:51:00,
2013-09-05 09:54:00,63.2,63.2,30.25,SW,232,0.0,9.0,100,0.00,,,0.01,Wunderground v.1.15,2013-09-05 13:54:00,
2013-09-05 09:55:00,63.2,62.9,30.25,SW,232,0.0,9.0,99,0.00,,,0.01,Wunderground v.1.15,2013-09-05 13:55:00,
2013-09-05 09:56:00,63.3,63.0,30.25,SW,232,0.0,9.0,99,0.00,,,0.01,Wunderground v.1.15,2013-09-05 13:56:00,
2013-09-05 10:01:00,63.7,63.4,30.25,SW,232,0.0,9.0,99,0.00,,,0.01,Wunderground v.1.15,2013-09-05 14:01:00,
2013-09-05 10:02:00,63.8,63.5,30.25,SW,232,0.0,9.0,99,0.00,,,0.01,Wunderground v.1.15,2013-09-05 14:02:00,
2013-09-05 10:03:00,63.9,63.6,30.25,SW,232,0.0,9.0,99,0.00,,,0.01,Wunderground v.1.15,2013-09-05 14:03:00,
2013-09-05 10:07:00,64.5,64.2,30.25,SW,232,0.0,9.0,99,0.00,,,0.01,Wunderground v.1.15,2013-09-05 14:07:00,
2013-09-05 10:08:00,64.6,64.3,30.25,SW,232,0.0,9.0,99,0.00,,,0.01,Wunderground v.1.15,2013-09-05 14:08:00,
2013-09-05 10:09:00,64.7,64.4,30.25,SW,232,0.0,9.0,99,0.00,,,0.01,Wunderground v.1.15,2013-09-05 14:09:00,
2013-09-05 10:11:00,64.8,64.5,30.25,SW,232,0.0,9.0,99,0.00,,,0.01,Wunderground v.1.15,2013-09-05 14:11:00,
2013-09-05 10:12:00,65.0,64.7,30.25,SW,232,0.0,9.0,99,0.00,,,0.01,Wunderground v.1.15,2013-09-05 14:12:00,
2013-09-05 10:13:00,65.0,64.7,30.25,SW,232,0.0,9.0,99,0.00,,,0.01,Wunderground v.1.15,2013-09-05 14:13:00,
2013-09-05 10:14:00,65.1,64.5,30.25,SW,232,0.0,9.0,98,0.00,,,0.01,Wunderground v.1.15,2013-09-05 14:14:00,
2013-09-05 10:19:00,65.5,64.6,30.25,SW,232,0.0,9.0,97,0.00,,,0.01,Wunderground v.1.15,2013-09-05 14:19:00,
2013-09-05 10:20:00,65.6,64.7,30.25,SW,232,0.0,9.0,97,0.00,,,0.01,Wunderground v.1.15,2013-09-05 14:20:00,
2013-09-05 10:22:00,65.9,65.0,30.25,SW,232,0.0,9.0,97,0.00,,,0.01,Wunderground v.1.15,2013-09-05 14:22:00,
2013-09-05 10:24:00,66.2,65.0,30.25,SW,232,0.0,9.0,96,0.00,,,0.01,Wunderground v.1.15,2013-09-05 14:24:00,
2013-09-05 10:26:00,66.3,65.1,30.25,SW,232,0.0,9.0,96,0.00,,,0.01,Wunderground v.1.15,2013-09-05 14:26:00,
2013-09-05 10:31:00,66.6,64.8,30.25,SW,232,0.0,9.0,94,0.00,,,0.01,Wunderground v.1.15,2013-09-05 14:31:00,
2013-09-05 10:32:00,66.7,64.9,30.25,SW,232,0.0,9.0,94,0.00,,,0.01,Wunderground v.1.15,2013-09-05 14:32:00,
2013-09-05 10:34:00,66.9,65.4,30.25,SW,232,0.0,9.0,95,0.00,,,0.01,Wunderground v.1.15,2013-09-05 14:34:00,
2013-09-05 10:36:00,67.3,65.5,30.25,SW,232,0.0,9.0,94,0.00,,,0.01,Wunderground v.1.15,2013-09-05 14:36:00,
2013-09-05 10:37:00,67.4,65.6,30.25,SW,232,0.0,9.0,94,0.00,,,0.01,Wunderground v.1.15,2013-09-05 14:37:00,
2013-09-05 10:38:00,67.6,65.8,30.25,SW,232,0.0,9.0,94,0.00,,,0.01,Wunderground v.1.15,2013-09-05 14:38:00,
2013-09-05 10:41:00,68.0,65.9,30.25,SW,232,0.0,9.0,93,0.00,,,0.01,Wunderground v.1.15,2013-09-05 14:41:00,
2013-09-05 10:42:00,68.1,66.0,30.25,SW,232,0.0,9.0,93,0.00,,,0.01,Wunderground v.1.15,2013-09-05 14:42:00,
2013-09-05 10:43:00,68.3,65.9,30.25,SW,232,0.0,9.0,92,0.00,,,0.01,Wunderground v.1.15,2013-09-05 14:43:00,
2013-09-05 10:46:00,68.4,65.4,30.25,SW,232,0.0,9.0,90,0.00,,,0.01,Wunderground v.1.15,2013-09-05 14:46:00,
2013-09-05 10:47:00,68.5,65.8,30.25,SW,232,0.0,9.0,91,0.00,,,0.01,Wunderground v.1.15,2013-09-05 14:47:00,
2013-09-05 10:49:00,68.6,65.9,30.25,SW,232,0.0,9.0,91,0.00,,,0.01,Wunderground v.1.15,2013-09-05 14:49:00,
2013-09-05 10:50:00,68.7,65.6,30.25,SW,232,0.0,9.0,90,0.00,,,0.01,Wunderground v.1.15,2013-09-05 14:50:00,
2013-09-05 10:52:00,68.9,65.5,30.25,SW,232,0.0,9.0,89,0.00,,,0.01,Wunderground v.1.15,2013-09-05 14:52:00,
2013-09-05 10:53:00,68.9,65.5,30.25,SW,232,0.0,9.0,89,0.00,,,0.01,Wunderground v.1.15,2013-09-05 14:53:00,
2013-09-05 10:55:00,69.0,65.9,30.25,SW,232,0.0,9.0,90,0.00,,,0.01,Wunderground v.1.15,2013-09-05 14:55:00,
2013-09-05 10:56:00,69.1,66.0,30.25,SW,232,0.0,9.0,90,0.00,,,0.01,Wunderground v.1.15,2013-09-05 14:56:00,
2013-09-05 10:57:00,69.2,66.1,30.25,SW,232,0.0,9.0,90,0.00,,,0.01,Wunderground v.1.15,2013-09-05 14:57:00,
2013-09-05 10:58:00,69.3,65.9,30.25,SW,232,0.0,9.0,89,0.00,,,0.01,Wunderground v.1.15,2013-09-05 14:58:00,
2013-09-05 11:01:00,69.5,66.1,30.26,SW,232,0.0,9.0,89,0.00,,,0.01,Wunderground v.1.15,2013-09-05 15:01:00,
2013-09-05 11:03:00,69.9,66.5,30.25,SW,232,0.0,9.0,89,0.00,,,0.01,Wunderground v.1.15,2013-09-05 15:03:00,
2013-09-05 11:08:00,70.5,65.4,30.25,SW,232,0.0,9.0,84,0.00,,,0.01,Wunderground v.1.15,2013-09-05 15:08:00,
2013-09-05 11:09:00,70.6,65.5,30.25,SW,232,0.0,9.0,84,0.00,,,0.01,Wunderground v.1.15,2013-09-05 15:09:00,
2013-09-05 11:14:00,71.2,66.8,30.25,SW,232,0.0,9.0,86,0.00,,,0.01,Wunderground v.1.15,2013-09-05 15:14:00,
2013-09-05 11:16:00,71.5,65.4,30.26,SW,232,0.0,9.0,81,0.00,,,0.01,Wunderground v.1.15,2013-09-05 15:16:00,
2013-09-05 11:18:00,71.8,66.0,30.25,SW,232,0.0,9.0,82,0.00,,,0.01,Wunderground v.1.15,2013-09-05 15:18:00,
2013-09-05 11:19:00,71.8,65.7,30.25,SW,232,0.0,9.0,81,0.00,,,0.01,Wunderground v.1.15,2013-09-05 15:19:00,
2013-09-05 11:21:00,71.9,65.4,30.25,SW,232,0.0,9.0,80,0.00,,,0.01,Wunderground v.1.15,2013-09-05 15:21:00,
2013-09-05 11:22:00,72.0,66.2,30.25,SW,232,0.0,9.0,82,0.00,,,0.01,Wunderground v.1.15,2013-09-05 15:22:00,
2013-09-05 11:25:00,72.1,65.9,30.25,NNW,331,0.0,9.0,81,0.00,,,0.01,Wunderground v.1.15,2013-09-05 15:25:00,
2013-09-05 11:26:00,72.2,65.7,30.25,NNW,331,0.0,9.0,80,0.00,,,0.01,Wunderground v.1.15,2013-09-05 15:26:00,
2013-09-05 11:27:00,72.2,65.3,30.26,NNW,343,0.0,9.0,79,0.00,,,0.01,Wunderground v.1.15,2013-09-05 15:27:00,
2013-09-05 11:31:00,72.6,65.7,30.26,NNW,346,0.0,9.0,79,0.00,,,0.01,Wunderground v.1.15,2013-09-05 15:31:00,
2013-09-05 11:32:00,72.7,65.8,30.26,NNW,346,0.0,9.0,79,0.00,,,0.01,Wunderground v.1.15,2013-09-05 15:32:00,
2013-09-05 11:33:00,72.9,66.4,30.26,NNW,346,0.0,9.0,80,0.00,,,0.01,Wunderground v.1.15,2013-09-05 15:33:00,
2013-09-05 11:35:00,73.3,67.1,30.26,NNW,346,0.0,9.0,81,0.00,,,0.01,Wunderground v.1.15,2013-09-05 15:35:00,
2013-09-05 11:39:00,74.2,67.3,30.26,NNW,333,0.0,9.0,79,0.00,,,0.01,Wunderground v.1.15,2013-09-05 15:39:00,
2013-09-05 11:40:00,74.6,67.7,30.26,NNW,334,0.0,9.0,79,0.00,,,0.01,Wunderground v.1.15,2013-09-05 15:40:00,
2013-09-05 11:41:00,74.7,66.6,30.26,NNW,334,0.0,9.0,76,0.00,,,0.01,Wunderground v.1.15,2013-09-05 15:41:00,
2013-09-05 11:42:00,74.9,67.6,30.26,NNW,334,0.0,9.0,78,0.00,,,0.01,Wunderground v.1.15,2013-09-05 15:42:00,
2013-09-05 11:43:00,75.2,67.1,30.26,ESE,109,0.0,9.0,76,0.00,,,0.01,Wunderground v.1.15,2013-09-05 15:43:00,
2013-09-05 11:46:00,75.5,66.6,30.25,SSE,147,0.0,9.0,74,0.00,,,0.01,Wunderground v.1.15,2013-09-05 15:46:00,
2013-09-05 11:48:00,75.7,66.4,30.25,SSE,162,0.0,9.0,73,0.00,,,0.01,Wunderground v.1.15,2013-09-05 15:48:00,
2013-09-05 11:49:00,75.7,66.4,30.25,NNW,337,0.0,9.0,73,0.00,,,0.01,Wunderground v.1.15,2013-09-05 15:49:00,
2013-09-05 11:50:00,75.7,66.4,30.25,NNW,337,0.0,9.0,73,0.00,,,0.01,Wunderground v.1.15,2013-09-05 15:50:00,
2013-09-05 11:52:00,75.5,66.2,30.25,NNW,345,0.0,9.0,73,0.00,,,0.01,Wunderground v.1.15,2013-09-05 15:52:00,
2013-09-05 11:55:00,75.5,66.6,30.25,North,360,0.0,9.0,74,0.00,,,0.01,Wunderground v.1.15,2013-09-05 15:55:00,
2013-09-05 11:56:00,75.7,67.2,30.25,North,360,0.0,9.0,75,0.00,,,0.01,Wunderground v.1.15,2013-09-05 15:56:00,
2013-09-05 11:58:00,76.1,68.0,30.25,West,259,0.0,9.0,76,0.00,,,0.01,Wunderground v.1.15,2013-09-05 15:58:00,
2013-09-05 12:01:00,76.4,67.5,30.25,SW,222,0.0,9.0,74,0.00,,,0.01,Wunderground v.1.15,2013-09-05 16:01:00,
2013-09-05 12:02:00,76.5,66.8,30.25,SW,222,0.0,9.0,72,0.00,,,0.01,Wunderground v.1.15,2013-09-05 16:02:00,
2013-09-05 12:04:00,76.5,67.6,30.25,SW,222,0.0,9.0,74,0.00,,,0.01,Wunderground v.1.15,2013-09-05 16:04:00,
2013-09-05 12:07:00,76.8,67.5,30.25,SW,222,0.0,9.0,73,0.00,,,0.01,Wunderground v.1.15,2013-09-05 16:07:00,
2013-09-05 12:08:00,76.9,68.4,30.25,SW,222,0.0,9.0,75,0.00,,,0.01,Wunderground v.1.15,2013-09-05 16:08:00,
2013-09-05 12:09:00,77.0,68.1,30.25,NE,51,0.0,9.0,74,0.00,,,0.01,Wunderground v.1.15,2013-09-05 16:09:00,
2013-09-05 12:10:00,77.2,67.9,30.25,NNE,19,0.0,9.0,73,0.00,,,0.01,Wunderground v.1.15,2013-09-05 16:10:00,
2013-09-05 12:15:00,77.4,65.6,30.25,NW,325,0.0,9.0,67,0.00,,,0.01,Wunderground v.1.15,2013-09-05 16:15:00,
2013-09-05 12:16:00,77.2,65.8,30.25,NW,324,1.0,9.0,68,0.00,,,0.01,Wunderground v.1.15,2013-09-05 16:16:00,
2013-09-05 12:18:00,76.9,66.4,30.25,NNW,334,1.0,9.0,70,0.00,,,0.01,Wunderground v.1.15,2013-09-05 16:18:00,
2013-09-05 12:19:00,77.0,66.9,30.25,NNW,339,1.0,9.0,71,0.00,,,0.01,Wunderground v.1.15,2013-09-05 16:19:00,
2013-09-05 12:22:00,77.1,67.0,30.25,North,5,1.0,9.0,71,0.00,,,0.01,Wunderground v.1.15,2013-09-05 16:22:00,
2013-09-05 12:25:00,77.4,66.8,30.25,NE,55,1.0,9.0,70,0.00,,,0.01,Wunderground v.1.15,2013-09-05 16:25:00,
2013-09-05 12:26:00,77.6,67.4,30.25,ENE,71,0.0,9.0,71,0.00,,,0.01,Wunderground v.1.15,2013-09-05 16:26:00,
2013-09-05 12:27:00,77.7,65.9,30.25,ENE,71,0.0,9.0,67,0.00,,,0.01,Wunderground v.1.15,2013-09-05 16:27:00,
2013-09-05 12:29:00,77.7,65.9,30.25,West,270,0.0,9.0,67,0.00,,,0.01,Wunderground v.1.15,2013-09-05 16:29:00,
2013-09-05 12:30:00,77.6,66.2,30.25,SW,233,0.0,9.0,68,0.00,,,0.01,Wunderground v.1.15,2013-09-05 16:30:00,
2013-09-05 12:31:00,77.4,66.0,30.25,SW,225,0.0,9.0,68,0.00,,,0.01,Wunderground v.1.15,2013-09-05 16:31:00,
2013-09-05 12:32:00,77.2,65.8,30.25,SW,223,0.0,9.0,68,0.00,,,0.01,Wunderground v.1.15,2013-09-05 16:32:00,
2013-09-05 12:34:00,77.0,66.5,30.25,SW,223,0.0,9.0,70,0.00,,,0.01,Wunderground v.1.15,2013-09-05 16:34:00,
2013-09-05 12:35:00,77.1,66.6,30.25,SW,223,0.0,9.0,70,0.00,,,0.01,Wunderground v.1.15,2013-09-05 16:35:00,
2013-09-05 12:37:00,77.3,66.7,30.25,SW,224,0.0,9.0,70,0.00,,,0.01,Wunderground v.1.15,2013-09-05 16:37:00,
2013-09-05 12:39:00,77.7,67.5,30.25,SW,224,0.0,9.0,71,0.00,,,0.01,Wunderground v.1.15,2013-09-05 16:39:00,
2013-09-05 12:40:00,77.9,67.7,30.25,SW,224,0.0,9.0,71,0.00,,,0.01,Wunderground v.1.15,2013-09-05 16:40:00,
2013-09-05 12:41:00,78.1,68.7,30.25,SW,224,0.0,9.0,73,0.00,,,0.01,Wunderground v.1.15,2013-09-05 16:41:00,
2013-09-05 12:45:00,79.2,67.3,30.25,NNW,344,0.0,9.0,67,0.00,,,0.01,Wunderground v.1.15,2013-09-05 16:45:00,
2013-09-05 12:46:00,79.4,67.5,30.25,ENE,59,0.0,9.0,67,0.00,,,0.01,Wunderground v.1.15,2013-09-05 16:46:00,
2013-09-05 12:47:00,79.5,67.1,30.25,ENE,57,0.0,9.0,66,0.00,,,0.01,Wunderground v.1.15,2013-09-05 16:47:00,
2013-09-05 12:48:00,79.6,66.8,30.25,NE,56,0.0,9.0,65,0.00,,,0.01,Wunderground v.1.15,2013-09-05 16:48:00,
2013-09-05 12:50:00,79.7,67.8,30.25,NE,42,0.0,9.0,67,0.00,,,0.01,Wunderground v.1.15,2013-09-05 16:50:00,
2013-09-05 12:53:00,80.1,67.3,30.24,South,182,0.0,9.0,65,0.00,,,0.01,Wunderground v.1.15,2013-09-05 16:53:00,
2013-09-05 12:55:00,80.1,65.9,30.24,SE,144,0.0,9.0,62,0.00,,,0.01,Wunderground v.1.15,2013-09-05 16:55:00,
2013-09-05 12:58:00,79.6,65.4,30.24,West,263,0.0,9.0,62,0.00,,,0.01,Wunderground v.1.15,2013-09-05 16:58:00,
2013-09-05 13:01:00,79.1,65.9,30.24,West,263,0.0,9.0,64,0.00,,,0.01,Wunderground v.1.15,2013-09-05 17:01:00,
2013-09-05 13:02:00,78.6,65.8,30.24,West,263,0.0,9.0,65,0.00,,,0.01,Wunderground v.1.15,2013-09-05 17:02:00,
2013-09-05 13:03:00,78.5,65.8,30.24,West,263,0.0,9.0,65,0.00,,,0.01,Wunderground v.1.15,2013-09-05 17:03:00,
2013-09-05 13:06:00,78.9,68.3,30.24,North,350,0.0,9.0,70,0.00,,,0.01,Wunderground v.1.15,2013-09-05 17:06:00,
2013-09-05 13:08:00,79.0,67.1,30.24,NW,313,0.0,9.0,67,0.00,,,0.01,Wunderground v.1.15,2013-09-05 17:08:00,
2013-09-05 13:09:00,79.0,66.2,30.24,NW,313,0.0,9.0,65,0.00,,,0.01,Wunderground v.1.15,2013-09-05 17:09:00,
2013-09-05 13:10:00,79.0,67.5,30.24,NNW,335,0.0,9.0,68,0.00,,,0.01,Wunderground v.1.15,2013-09-05 17:10:00,
2013-09-05 13:11:00,79.1,68.1,30.24,NNW,335,0.0,9.0,69,0.00,,,0.01,Wunderground v.1.15,2013-09-05 17:11:00,
2013-09-05 13:14:00,79.6,67.2,30.24,NNW,341,0.0,9.0,66,0.00,,,0.01,Wunderground v.1.15,2013-09-05 17:14:00,
2013-09-05 13:16:00,79.9,68.4,30.24,NNW,341,0.0,9.0,68,0.00,,,0.01,Wunderground v.1.15,2013-09-05 17:16:00,
2013-09-05 13:19:00,80.4,66.6,30.24,NNW,341,0.0,9.0,63,0.00,,,0.01,Wunderground v.1.15,2013-09-05 17:19:00,
2013-09-05 13:21:00,80.9,68.5,30.24,NNW,341,0.0,9.0,66,0.00,,,0.01,Wunderground v.1.15,2013-09-05 17:21:00,
2013-09-05 13:22:00,81.2,67.9,30.24,NE,41,0.0,9.0,64,0.00,,,0.01,Wunderground v.1.15,2013-09-05 17:22:00,
2013-09-05 13:23:00,81.4,67.1,30.24,NE,38,0.0,9.0,62,0.00,,,0.01,Wunderground v.1.15,2013-09-05 17:23:00,
2013-09-05 13:26:00,81.7,66.5,30.24,SSW,193,0.0,9.0,60,0.00,,,0.01,Wunderground v.1.15,2013-09-05 17:26:00,
2013-09-05 13:29:00,81.3,66.6,30.24,SW,218,0.0,9.0,61,0.00,,,0.01,Wunderground v.1.15,2013-09-05 17:29:00,
2013-09-05 13:32:00,81.5,66.8,30.24,NE,50,0.0,9.0,61,0.00,,,0.01,Wunderground v.1.15,2013-09-05 17:32:00,
2013-09-05 13:33:00,81.6,66.8,30.24,ENE,57,0.0,9.0,61,0.00,,,0.01,Wunderground v.1.15,2013-09-05 17:33:00,
2013-09-05 13:36:00,81.8,68.0,30.24,ENE,59,0.0,9.0,63,0.00,,,0.01,Wunderground v.1.15,2013-09-05 17:36:00,
2013-09-05 13:37:00,82.0,68.2,30.24,ENE,59,0.0,9.0,63,0.00,,,0.01,Wunderground v.1.15,2013-09-05 17:37:00,
2013-09-05 13:40:00,82.6,67.8,30.24,West,270,0.0,9.0,61,0.00,,,0.01,Wunderground v.1.15,2013-09-05 17:40:00,
2013-09-05 13:43:00,83.0,67.7,30.24,WSW,242,0.0,9.0,60,0.00,,,0.01,Wunderground v.1.15,2013-09-05 17:43:00,
2013-09-05 13:45:00,83.4,68.5,30.24,ENE,65,0.0,9.0,61,0.00,,,0.01,Wunderground v.1.15,2013-09-05 17:45:00,
2013-09-05 13:49:00,83.9,67.0,30.24,NNE,27,0.0,9.0,57,0.00,,,0.01,Wunderground v.1.15,2013-09-05 17:49:00,
2013-09-05 13:50:00,83.9,66.5,30.24,NNE,19,0.0,9.0,56,0.00,,,0.01,Wunderground v.1.15,2013-09-05 17:50:00,
2013-09-05 13:51:00,83.9,66.0,30.24,NNE,22,0.0,9.0,55,0.00,,,0.01,Wunderground v.1.15,2013-09-05 17:51:00,
2013-09-05 13:54:00,83.7,66.8,30.24,NE,40,0.0,9.0,57,0.00,,,0.01,Wunderground v.1.15,2013-09-05 17:54:00,
2013-09-05 13:55:00,83.8,68.4,30.24,ENE,74,0.0,9.0,60,0.00,,,0.01,Wunderground v.1.15,2013-09-05 17:55:00,
2013-09-05 13:56:00,83.8,65.4,30.24,North,355,0.0,9.0,54,0.00,,,0.01,Wunderground v.1.15,2013-09-05 17:56:00,
2013-09-05 13:58:00,83.3,67.0,30.24,North,11,0.0,9.0,58,0.00,,,0.01,Wunderground v.1.15,2013-09-05 17:58:00,
2013-09-05 14:01:00,83.1,68.3,30.24,North,360,0.0,9.0,61,0.00,,,0.01,Wunderground v.1.15,2013-09-05 18:01:00,
2013-09-05 14:02:00,83.2,67.4,30.24,ENE,57,0.0,9.0,59,0.00,,,0.01,Wunderground v.1.15,2013-09-05 18:02:00,
2013-09-05 14:04:00,83.3,67.5,30.24,ENE,57,0.0,9.0,59,0.00,,,0.01,Wunderground v.1.15,2013-09-05 18:04:00,
2013-09-05 14:05:00,83.4,68.1,30.24,NE,56,0.0,9.0,60,0.00,,,0.01,Wunderground v.1.15,2013-09-05 18:05:00,
2013-09-05 14:07:00,83.6,67.3,30.24,ENE,59,0.0,9.0,58,0.00,,,0.01,Wunderground v.1.15,2013-09-05 18:07:00,
2013-09-05 14:09:00,83.8,68.4,30.23,ENE,59,0.0,9.0,60,0.00,,,0.01,Wunderground v.1.15,2013-09-05 18:09:00,
2013-09-05 14:10:00,83.9,69.0,30.23,ENE,59,0.0,9.0,61,0.00,,,0.01,Wunderground v.1.15,2013-09-05 18:10:00,
2013-09-05 14:14:00,84.6,67.2,30.23,NE,49,0.0,9.0,56,0.00,,,0.01,Wunderground v.1.15,2013-09-05 18:14:00,
2013-09-05 14:15:00,84.7,66.7,30.23,NE,47,0.0,9.0,55,0.00,,,0.01,Wunderground v.1.15,2013-09-05 18:15:00,
2013-09-05 14:17:00,84.8,68.4,30.23,NNE,14,0.0,9.0,58,0.00,,,0.01,Wunderground v.1.15,2013-09-05 18:17:00,
2013-09-05 14:18:00,84.7,67.8,30.23,North,351,0.0,9.0,57,0.00,,,0.01,Wunderground v.1.15,2013-09-05 18:18:00,
2013-09-05 14:20:00,84.4,66.5,30.23,NNE,31,1.0,9.0,55,0.00,,,0.01,Wunderground v.1.15,2013-09-05 18:20:00,
2013-09-05 14:21:00,84.4,67.0,30.23,NNE,31,1.0,1.0,56,0.00,,,0.01,Wunderground v.1.15,2013-09-05 18:21:00,
2013-09-05 14:23:00,84.3,66.9,30.23,ENE,69,1.0,9.0,56,0.00,,,0.01,Wunderground v.1.15,2013-09-05 18:23:00,
2013-09-05 14:25:00,84.3,67.9,30.23,NNE,22,1.0,9.0,58,0.00,,,0.01,Wunderground v.1.15,2013-09-05 18:25:00,
2013-09-05 14:28:00,84.4,67.0,30.23,North,355,0.0,9.0,56,0.00,,,0.01,Wunderground v.1.15,2013-09-05 18:28:00,
2013-09-05 14:31:00,84.2,67.3,30.23,NW,321,0.0,9.0,57,0.00,,,0.01,Wunderground v.1.15,2013-09-05 18:31:00,
2013-09-05 14:33:00,83.8,65.9,30.23,NW,321,0.0,9.0,55,0.00,,,0.01,Wunderground v.1.15,2013-09-05 18:33:00,
2013-09-05 14:34:00,83.7,65.8,30.23,WNW,302,0.0,9.0,55,0.00,,,0.01,Wunderground v.1.15,2013-09-05 18:34:00,
2013-09-05 14:37:00,82.9,66.1,30.22,North,5,0.0,9.0,57,0.00,,,0.01,Wunderground v.1.15,2013-09-05 18:37:00,
2013-09-05 14:38:00,82.6,66.8,30.22,NE,43,0.0,9.0,59,0.00,,,0.01,Wunderground v.1.15,2013-09-05 18:38:00,
2013-09-05 14:39:00,82.5,66.2,30.22,North,355,0.0,9.0,58,0.00,,,0.01,Wunderground v.1.15,2013-09-05 18:39:00,
2013-09-05 14:41:00,82.6,67.8,30.22,North,9,1.0,1.0,61,0.00,,,0.01,Wunderground v.1.15,2013-09-05 18:41:00,
2013-09-05 14:42:00,82.7,65.4,30.22,NNE,13,1.0,9.0,56,0.00,,,0.01,Wunderground v.1.15,2013-09-05 18:42:00,
2013-09-05 14:43:00,82.9,65.1,30.22,NNE,15,1.0,9.0,55,0.00,,,0.01,Wunderground v.1.15,2013-09-05 18:43:00,
2013-09-05 14:44:00,83.1,66.8,30.22,NNE,15,1.0,9.0,58,0.00,,,0.01,Wunderground v.1.15,2013-09-05 18:44:00,
2013-09-05 14:46:00,83.6,67.8,30.22,NNE,14,0.0,9.0,59,0.00,,,0.01,Wunderground v.1.15,2013-09-05 18:46:00,
2013-09-05 14:47:00,83.8,65.9,30.22,NNE,14,0.0,9.0,55,0.00,,,0.01,Wunderground v.1.15,2013-09-05 18:47:00,
2013-09-05 14:49:00,84.2,67.3,30.22,NNE,33,0.0,9.0,57,0.00,,,0.01,Wunderground v.1.15,2013-09-05 18:49:00,
2013-09-05 14:52:00,84.8,68.4,30.22,NE,46,0.0,9.0,58,0.00,,,0.01,Wunderground v.1.15,2013-09-05 18:52:00,
2013-09-05 14:53:00,85.0,69.1,30.22,NE,53,0.0,9.0,59,0.00,,,0.01,Wunderground v.1.15,2013-09-05 18:53:00,
2013-09-05 14:55:00,85.3,67.8,30.22,NE,53,0.0,9.0,56,0.00,,,0.01,Wunderground v.1.15,2013-09-05 18:55:00,
2013-09-05 14:58:00,85.8,66.7,30.22,ENE,70,0.0,9.0,53,0.00,,,0.01,Wunderground v.1.15,2013-09-05 18:58:00,
2013-09-05 14:59:00,85.9,66.8,30.22,NNW,338,0.0,9.0,53,0.00,,,0.01,Wunderground v.1.15,2013-09-05 18:59:00,
2013-09-05 15:01:00,85.9,65.7,30.22,NNE,17,0.0,9.0,51,0.00,,,0.01,Wunderground v.1.15,2013-09-05 19:01:00,
2013-09-05 15:04:00,86.0,65.8,30.22,NW,315,0.0,9.0,51,0.00,,,0.01,Wunderground v.1.15,2013-09-05 19:04:00,
2013-09-05 15:07:00,86.0,67.4,30.22,NW,315,0.0,9.0,54,0.00,,,0.01,Wunderground v.1.15,2013-09-05 19:07:00,
2013-09-05 15:08:00,86.1,68.0,30.21,NW,315,0.0,9.0,55,0.00,,,0.01,Wunderground v.1.15,2013-09-05 19:08:00,
2013-09-05 15:11:00,86.2,65.9,30.21,ENE,68,0.0,9.0,51,0.00,,,0.01,Wunderground v.1.15,2013-09-05 19:11:00,
2013-09-05 15:13:00,86.3,67.7,30.21,ENE,68,0.0,9.0,54,0.00,,,0.01,Wunderground v.1.15,2013-09-05 19:13:00,
2013-09-05 15:14:00,86.3,68.2,30.21,ENE,68,0.0,9.0,55,0.00,,,0.01,Wunderground v.1.15,2013-09-05 19:14:00,
2013-09-05 15:16:00,86.4,68.8,30.21,ENE,65,0.0,9.0,56,0.00,,,0.01,Wunderground v.1.15,2013-09-05 19:16:00,
2013-09-05 15:19:00,86.6,68.0,30.21,ENE,63,0.0,9.0,54,0.00,,,0.01,Wunderground v.1.15,2013-09-05 19:19:00,
2013-09-05 15:21:00,86.6,68.0,30.21,ENE,63,0.0,9.0,54,0.00,,,0.01,Wunderground v.1.15,2013-09-05 19:21:00,
2013-09-05 15:22:00,86.7,68.1,30.21,NE,47,0.0,9.0,54,0.00,,,0.01,Wunderground v.1.15,2013-09-05 19:22:00,
2013-09-05 15:24:00,86.8,68.7,30.21,NNE,32,0.0,9.0,55,0.00,,,0.01,Wunderground v.1.15,2013-09-05 19:24:00,
2013-09-05 15:27:00,87.0,68.3,30.21,NNE,22,0.0,9.0,54,0.00,,,0.01,Wunderground v.1.15,2013-09-05 19:27:00,
2013-09-05 15:29:00,87.3,69.2,30.21,NNE,27,0.0,9.0,55,0.00,,,0.01,Wunderground v.1.15,2013-09-05 19:29:00,
2013-09-05 15:32:00,87.4,65.9,30.21,NNW,329,0.0,9.0,49,0.00,,,0.01,Wunderground v.1.15,2013-09-05 19:32:00,
2013-09-05 15:33:00,87.4,68.2,30.21,NNW,329,0.0,9.0,53,0.00,,,0.01,Wunderground v.1.15,2013-09-05 19:33:00,
2013-09-05 15:34:00,87.5,68.3,30.21,NNW,329,0.0,9.0,53,0.00,,,0.01,Wunderground v.1.15,2013-09-05 19:34:00,
2013-09-05 15:35:00,87.5,66.6,30.21,ENE,63,0.0,9.0,50,0.00,,,0.01,Wunderground v.1.15,2013-09-05 19:35:00,
2013-09-05 15:38:00,87.5,66.6,30.21,NNE,13,0.0,9.0,50,0.00,,,0.01,Wunderground v.1.15,2013-09-05 19:38:00,
2013-09-05 15:39:00,87.2,66.3,30.21,North,5,0.0,9.0,50,0.00,,,0.01,Wunderground v.1.15,2013-09-05 19:39:00,
2013-09-05 15:40:00,87.1,67.9,30.21,North,360,0.0,9.0,53,0.00,,,0.01,Wunderground v.1.15,2013-09-05 19:40:00,
2013-09-05 15:41:00,87.0,66.7,30.21,North,360,0.0,9.0,51,0.00,,,0.01,Wunderground v.1.15,2013-09-05 19:41:00,
2013-09-05 15:43:00,87.2,68.0,30.21,North,360,0.0,9.0,53,0.00,,,0.01,Wunderground v.1.15,2013-09-05 19:43:00,
2013-09-05 15:46:00,87.4,65.9,30.21,East,80,0.0,9.0,49,0.00,,,0.01,Wunderground v.1.15,2013-09-05 19:46:00,
2013-09-05 15:47:00,87.4,65.3,30.20,East,80,0.0,9.0,48,0.00,,,0.01,Wunderground v.1.15,2013-09-05 19:47:00,
2013-09-05 15:48:00,87.4,66.5,30.20,ENE,78,0.0,9.0,50,0.00,,,0.01,Wunderground v.1.15,2013-09-05 19:48:00,
2013-09-05 15:52:00,87.7,67.3,30.20,ENE,64,0.0,9.0,51,0.00,,,0.01,Wunderground v.1.15,2013-09-05 19:52:00,
2013-09-05 15:53:00,87.8,68.0,30.20,ENE,57,0.0,9.0,52,0.00,,,0.01,Wunderground v.1.15,2013-09-05 19:53:00,
2013-09-05 15:54:00,87.8,66.8,30.20,ENE,57,0.0,9.0,50,0.00,,,0.01,Wunderground v.1.15,2013-09-05 19:54:00,
2013-09-05 15:55:00,87.9,68.1,30.20,ENE,57,0.0,9.0,52,0.00,,,0.01,Wunderground v.1.15,2013-09-05 19:55:00,
2013-09-05 15:57:00,88.1,65.9,30.20,ENE,57,0.0,9.0,48,0.00,,,0.01,Wunderground v.1.15,2013-09-05 19:57:00,
2013-09-05 16:02:00,88.0,67.0,30.20,NNE,30,0.0,9.0,50,0.00,,,0.01,Wunderground v.1.15,2013-09-05 20:02:00,
2013-09-05 16:04:00,87.8,67.4,30.20,NNE,21,0.0,9.0,51,0.00,,,0.01,Wunderground v.1.15,2013-09-05 20:04:00,
2013-09-05 16:07:00,87.1,66.8,30.20,NNE,15,0.0,9.0,51,0.00,,,0.01,Wunderground v.1.15,2013-09-05 20:07:00,
2013-09-05 16:08:00,86.6,64.6,30.20,NNE,22,0.0,9.0,48,0.00,,,0.01,Wunderground v.1.15,2013-09-05 20:08:00,
2013-09-05 16:09:00,86.4,65.6,30.20,West,263,0.0,9.0,50,0.00,,,0.01,Wunderground v.1.15,2013-09-05 20:09:00,
2013-09-05 16:10:00,86.1,64.7,30.20,West,263,0.0,9.0,49,0.00,,,0.01,Wunderground v.1.15,2013-09-05 20:10:00,
2013-09-05 16:12:00,85.7,65.5,30.20,NW,318,0.0,9.0,51,0.00,,,0.01,Wunderground v.1.15,2013-09-05 20:12:00,
2013-09-05 16:13:00,85.6,67.0,30.20,NW,318,0.0,9.0,54,0.00,,,0.01,Wunderground v.1.15,2013-09-05 20:13:00,
2013-09-05 16:16:00,85.6,66.5,30.20,ENE,57,0.0,9.0,53,0.00,,,0.01,Wunderground v.1.15,2013-09-05 20:16:00,
2013-09-05 16:17:00,85.6,65.4,30.20,East,82,0.0,9.0,51,0.00,,,0.01,Wunderground v.1.15,2013-09-05 20:17:00,
2013-09-05 16:18:00,85.6,66.5,30.20,East,82,0.0,9.0,53,0.00,,,0.01,Wunderground v.1.15,2013-09-05 20:18:00,
2013-09-05 16:22:00,85.4,65.8,30.20,North,355,0.0,9.0,52,0.00,,,0.01,Wunderground v.1.15,2013-09-05 20:22:00,
2013-09-05 16:23:00,84.6,64.5,30.20,NNW,348,1.0,9.0,51,0.00,,,0.01,Wunderground v.1.15,2013-09-05 20:23:00,
2013-09-05 16:24:00,84.2,64.7,30.20,NNW,348,1.0,9.0,52,0.00,,,0.01,Wunderground v.1.15,2013-09-05 20:24:00,
2013-09-05 16:25:00,83.9,64.9,30.20,NNW,348,1.0,9.0,53,0.00,,,0.01,Wunderground v.1.15,2013-09-05 20:25:00,
2013-09-05 16:28:00,83.7,67.8,30.20,NNW,348,1.0,9.0,59,0.00,,,0.01,Wunderground v.1.15,2013-09-05 20:28:00,
2013-09-05 16:30:00,83.8,65.4,30.20,NNW,348,1.0,9.0,54,0.00,,,0.01,Wunderground v.1.15,2013-09-05 20:30:00,
2013-09-05 16:31:00,83.8,65.9,30.20,NNW,348,1.0,1.0,55,0.00,,,0.01,Wunderground v.1.15,2013-09-05 20:31:00,
2013-09-05 16:33:00,84.1,65.1,30.20,NNW,348,0.0,9.0,53,0.00,,,0.01,Wunderground v.1.15,2013-09-05 20:33:00,
2013-09-05 16:34:00,84.2,65.2,30.20,NNW,348,0.0,9.0,53,0.00,,,0.01,Wunderground v.1.15,2013-09-05 20:34:00,
2013-09-05 16:36:00,84.4,64.3,30.20,NNE,14,0.0,9.0,51,0.00,,,0.01,Wunderground v.1.15,2013-09-05 20:36:00,
2013-09-05 16:38:00,84.6,66.7,30.20,NNE,14,0.0,9.0,55,0.00,,,0.01,Wunderground v.1.15,2013-09-05 20:38:00,
2013-09-05 16:42:00,85.0,67.0,30.20,North,5,0.0,9.0,55,0.00,,,0.01,Wunderground v.1.15,2013-09-05 20:42:00,
2013-09-05 16:43:00,85.1,64.9,30.20,NE,40,0.0,9.0,51,0.00,,,0.01,Wunderground v.1.15,2013-09-05 20:43:00,
2013-09-05 16:44:00,85.1,64.9,30.20,NE,40,0.0,9.0,51,0.00,,,0.01,Wunderground v.1.15,2013-09-05 20:44:00,
2013-09-05 16:45:00,85.1,64.4,30.20,NE,39,0.0,9.0,50,0.00,,,0.01,Wunderground v.1.15,2013-09-05 20:45:00,
2013-09-05 16:48:00,85.2,66.1,30.20,NE,38,0.0,9.0,53,0.00,,,0.01,Wunderground v.1.15,2013-09-05 20:48:00,
2013-09-05 16:50:00,85.4,66.3,30.19,NE,38,0.0,9.0,53,0.00,,,0.01,Wunderground v.1.15,2013-09-05 20:50:00,
2013-09-05 16:51:00,85.5,66.4,30.20,NE,38,0.0,9.0,53,0.00,,,0.01,Wunderground v.1.15,2013-09-05 20:51:00,
2013-09-05 16:54:00,85.9,67.3,30.20,NE,38,0.0,9.0,54,0.00,,,0.01,Wunderground v.1.15,2013-09-05 20:54:00,
2013-09-05 16:55:00,86.0,66.3,30.19,NE,35,0.0,9.0,52,0.00,,,0.01,Wunderground v.1.15,2013-09-05 20:55:00,
2013-09-05 16:56:00,86.0,67.4,30.20,NE,35,0.0,9.0,54,0.00,,,0.01,Wunderground v.1.15,2013-09-05 20:56:00,
2013-09-05 16:57:00,85.9,67.3,30.20,NE,35,0.0,9.0,54,0.00,,,0.01,Wunderground v.1.15,2013-09-05 20:57:00,
2013-09-05 17:01:00,85.8,68.3,30.19,NE,36,0.0,9.0,56,0.00,,,0.01,Wunderground v.1.15,2013-09-05 21:01:00,
2013-09-05 17:02:00,85.7,67.7,30.20,NE,36,0.0,9.0,55,0.00,,,0.01,Wunderground v.1.15,2013-09-05 21:02:00,
2013-09-05 17:04:00,85.7,67.7,30.20,NE,36,0.0,9.0,55,0.00,,,0.01,Wunderground v.1.15,2013-09-05 21:04:00,
2013-09-05 17:06:00,85.5,66.4,30.19,NNE,31,0.0,9.0,53,0.00,,,0.01,Wunderground v.1.15,2013-09-05 21:06:00,
2013-09-05 17:07:00,85.5,67.0,30.20,NNE,31,0.0,9.0,54,0.00,,,0.01,Wunderground v.1.15,2013-09-05 21:07:00,
2013-09-05 17:10:00,85.3,67.3,30.20,NNE,32,0.0,9.0,55,0.00,,,0.01,Wunderground v.1.15,2013-09-05 21:10:00,
2013-09-05 17:11:00,85.3,67.8,30.20,NNE,32,0.0,9.0,56,0.00,,,0.01,Wunderground v.1.15,2013-09-05 21:11:00,
2013-09-05 17:13:00,85.4,67.9,30.19,NNE,31,0.0,9.0,56,0.00,,,0.01,Wunderground v.1.15,2013-09-05 21:13:00,
2013-09-05 17:14:00,85.4,66.9,30.19,NNE,31,0.0,9.0,54,0.00,,,0.01,Wunderground v.1.15,2013-09-05 21:14:00,
2013-09-05 17:20:00,85.5,65.9,30.19,East,96,0.0,9.0,52,0.00,,,0.01,Wunderground v.1.15,2013-09-05 21:20:00,
2013-09-05 17:22:00,85.0,64.8,30.19,North,355,0.0,9.0,51,0.00,,,0.01,Wunderground v.1.15,2013-09-05 21:22:00,
2013-09-05 17:24:00,84.7,65.7,30.20,North,5,0.0,9.0,53,0.00,,,0.01,Wunderground v.1.15,2013-09-05 21:24:00,
2013-09-05 17:27:00,84.9,66.9,30.20,North,5,0.0,9.0,55,0.00,,,0.01,Wunderground v.1.15,2013-09-05 21:27:00,
2013-09-05 17:28:00,85.0,66.5,30.20,North,5,0.0,9.0,54,0.00,,,0.01,Wunderground v.1.15,2013-09-05 21:28:00,
2013-09-05 17:29:00,85.0,66.0,30.20,North,5,0.0,9.0,53,0.00,,,0.01,Wunderground v.1.15,2013-09-05 21:29:00,
2013-09-05 17:30:00,84.7,65.1,30.20,North,360,1.0,9.0,52,0.00,,,0.01,Wunderground v.1.15,2013-09-05 21:30:00,
2013-09-05 17:32:00,84.4,67.0,30.20,North,360,0.0,9.0,56,0.00,,,0.01,Wunderground v.1.15,2013-09-05 21:32:00,
2013-09-05 17:33:00,84.4,67.0,30.20,North,360,0.0,9.0,56,0.00,,,0.01,Wunderground v.1.15,2013-09-05 21:33:00,
2013-09-05 17:35:00,84.5,67.1,30.20,North,360,0.0,9.0,56,0.00,,,0.01,Wunderground v.1.15,2013-09-05 21:35:00,
2013-09-05 17:38:00,84.5,64.9,30.20,North,349,1.0,9.0,52,0.00,,,0.01,Wunderground v.1.15,2013-09-05 21:38:00,
2013-09-05 17:39:00,84.3,64.8,30.20,NNW,347,1.0,9.0,52,0.00,,,0.01,Wunderground v.1.15,2013-09-05 21:39:00,
2013-09-05 17:41:00,83.8,64.8,30.20,NNW,347,0.0,9.0,53,0.00,,,0.01,Wunderground v.1.15,2013-09-05 21:41:00,
2013-09-05 17:43:00,83.6,66.2,30.19,NNW,347,0.0,9.0,56,0.00,,,0.01,Wunderground v.1.15,2013-09-05 21:43:00,
2013-09-05 17:45:00,83.5,64.6,30.19,NNW,347,0.0,9.0,53,0.00,,,0.01,Wunderground v.1.15,2013-09-05 21:45:00,
2013-09-05 17:46:00,83.5,65.6,30.19,NNW,347,0.0,9.0,55,0.00,,,0.01,Wunderground v.1.15,2013-09-05 21:46:00,
2013-09-05 17:47:00,83.6,65.2,30.20,NNW,347,0.0,9.0,54,0.00,,,0.01,Wunderground v.1.15,2013-09-05 21:47:00,
2013-09-05 17:49:00,83.8,65.9,30.20,NNW,347,0.0,9.0,55,0.00,,,0.01,Wunderground v.1.15,2013-09-05 21:49:00,
2013-09-05 17:51:00,84.1,67.2,30.19,NNW,347,0.0,9.0,57,0.00,,,0.01,Wunderground v.1.15,2013-09-05 21:51:00,
2013-09-05 17:52:00,84.4,67.5,30.19,NNW,347,0.0,9.0,57,0.00,,,0.01,Wunderground v.1.15,2013-09-05 21:52:00,
2013-09-05 17:54:00,84.8,67.9,30.19,North,355,0.0,9.0,57,0.00,,,0.01,Wunderground v.1.15,2013-09-05 21:54:00,
2013-09-05 17:56:00,84.7,65.1,30.19,North,355,0.0,9.0,52,0.00,,,0.01,Wunderground v.1.15,2013-09-05 21:56:00,
2013-09-05 17:59:00,84.5,66.0,30.19,North,355,0.0,9.0,54,0.00,,,0.01,Wunderground v.1.15,2013-09-05 21:59:00,
2013-09-05 18:01:00,84.6,66.7,30.19,North,355,0.0,9.0,55,0.00,,,0.01,Wunderground v.1.15,2013-09-05 22:01:00,
2013-09-05 18:02:00,84.8,66.8,30.19,North,355,0.0,9.0,55,0.00,,,0.01,Wunderground v.1.15,2013-09-05 22:02:00,
2013-09-05 18:03:00,84.9,66.4,30.19,North,355,0.0,9.0,54,0.00,,,0.01,Wunderground v.1.15,2013-09-05 22:03:00,
2013-09-05 18:04:00,85.0,66.5,30.19,North,355,0.0,9.0,54,0.00,,,0.01,Wunderground v.1.15,2013-09-05 22:04:00,
2013-09-05 18:05:00,85.2,67.2,30.19,North,355,0.0,9.0,55,0.00,,,0.01,Wunderground v.1.15,2013-09-05 22:05:00,
2013-09-05 18:09:00,85.4,64.6,30.19,North,360,0.0,9.0,50,0.00,,,0.01,Wunderground v.1.15,2013-09-05 22:09:00,
2013-09-05 18:11:00,85.3,65.1,30.19,North,360,0.0,9.0,51,0.00,,,0.01,Wunderground v.1.15,2013-09-05 22:11:00,
2013-09-05 18:12:00,85.3,65.7,30.19,North,360,0.0,9.0,52,0.00,,,0.01,Wunderground v.1.15,2013-09-05 22:12:00,
2013-09-05 18:13:00,85.1,64.4,30.19,North,360,0.0,9.0,50,0.00,,,0.01,Wunderground v.1.15,2013-09-05 22:13:00,
2013-09-05 18:14:00,85.0,64.3,30.19,North,360,0.0,9.0,50,0.00,,,0.01,Wunderground v.1.15,2013-09-05 22:14:00,
2013-09-05 18:18:00,84.8,65.2,30.19,North,360,0.0,9.0,52,0.00,,,0.01,Wunderground v.1.15,2013-09-05 22:18:00,
2013-09-05 18:19:00,84.7,65.1,30.19,North,360,0.0,9.0,52,0.00,,,0.01,Wunderground v.1.15,2013-09-05 22:19:00,
2013-09-05 18:22:00,84.9,66.9,30.19,North,360,0.0,9.0,55,0.00,,,0.01,Wunderground v.1.15,2013-09-05 22:22:00,
2013-09-05 18:24:00,85.1,66.6,30.19,North,360,0.0,9.0,54,0.00,,,0.01,Wunderground v.1.15,2013-09-05 22:24:00,
2013-09-05 18:25:00,85.2,66.1,30.19,North,360,0.0,9.0,53,0.00,,,0.01,Wunderground v.1.15,2013-09-05 22:25:00,
2013-09-05 18:26:00,85.4,66.9,30.19,North,360,0.0,9.0,54,0.00,,,0.01,Wunderground v.1.15,2013-09-05 22:26:00,
2013-09-05 18:28:00,85.7,67.7,30.19,North,360,0.0,9.0,55,0.00,,,0.01,Wunderground v.1.15,2013-09-05 22:28:00,
2013-09-05 18:29:00,85.8,67.8,30.19,North,360,0.0,9.0,55,0.00,,,0.01,Wunderground v.1.15,2013-09-05 22:29:00,
2013-09-05 18:30:00,86.0,66.9,30.19,North,360,0.0,9.0,53,0.00,,,0.01,Wunderground v.1.15,2013-09-05 22:30:00,
2013-09-05 18:32:00,86.1,66.4,30.19,North,360,0.0,9.0,52,0.00,,,0.01,Wunderground v.1.15,2013-09-05 22:32:00,
2013-09-05 18:34:00,86.0,66.9,30.19,North,360,0.0,9.0,53,0.00,,,0.01,Wunderground v.1.15,2013-09-05 22:34:00,
2013-09-05 18:37:00,85.9,67.9,30.19,North,360,0.0,9.0,55,0.00,,,0.01,Wunderground v.1.15,2013-09-05 22:37:00,
2013-09-05 18:40:00,85.8,67.8,30.19,North,360,0.0,9.0,55,0.00,,,0.01,Wunderground v.1.15,2013-09-05 22:40:00,
2013-09-05 18:42:00,85.7,67.1,30.19,North,360,0.0,9.0,54,0.00,,,0.01,Wunderground v.1.15,2013-09-05 22:42:00,
2013-09-05 18:43:00,85.6,66.5,30.19,North,360,0.0,9.0,53,0.00,,,0.01,Wunderground v.1.15,2013-09-05 22:43:00,
2013-09-05 18:47:00,85.7,68.2,30.19,North,360,0.0,9.0,56,0.00,,,0.01,Wunderground v.1.15,2013-09-05 22:47:00,
2013-09-05 18:48:00,85.7,67.7,30.19,North,360,0.0,9.0,55,0.00,,,0.01,Wunderground v.1.15,2013-09-05 22:48:00,
2013-09-05 18:49:00,85.7,67.1,30.19,North,360,0.0,9.0,54,0.00,,,0.01,Wunderground v.1.15,2013-09-05 22:49:00,
2013-09-05 18:50:00,85.6,67.0,30.19,North,360,0.0,9.0,54,0.00,,,0.01,Wunderground v.1.15,2013-09-05 22:50:00,
2013-09-05 18:53:00,85.2,67.2,30.19,North,360,0.0,9.0,55,0.00,,,0.01,Wunderground v.1.15,2013-09-05 22:53:00,
2013-09-05 18:54:00,85.2,67.7,30.19,North,360,0.0,9.0,56,0.00,,,0.01,Wunderground v.1.15,2013-09-05 22:54:00,
2013-09-05 18:58:00,84.8,66.3,30.19,North,360,0.0,9.0,54,0.00,,,0.01,Wunderground v.1.15,2013-09-05 22:58:00,
2013-09-05 18:59:00,84.7,66.7,30.19,North,360,0.0,9.0,55,0.00,,,0.01,Wunderground v.1.15,2013-09-05 22:59:00,
2013-09-05 19:01:00,84.6,66.1,30.19,North,360,0.0,9.0,54,0.00,,,0.01,Wunderground v.1.15,2013-09-05 23:01:00,
2013-09-05 19:03:00,84.2,65.8,30.19,North,360,0.0,9.0,54,0.00,,,0.01,Wunderground v.1.15,2013-09-05 23:03:00,
2013-09-05 19:04:00,84.1,65.7,30.19,North,360,0.0,9.0,54,0.00,,,0.01,Wunderground v.1.15,2013-09-05 23:04:00,
2013-09-05 19:05:00,83.9,66.0,30.19,North,360,0.0,9.0,55,0.00,,,0.01,Wunderground v.1.15,2013-09-05 23:05:00,
2013-09-05 19:06:00,83.7,66.3,30.19,North,360,0.0,9.0,56,0.00,,,0.01,Wunderground v.1.15,2013-09-05 23:06:00,
2013-09-05 19:09:00,83.2,66.9,30.19,North,360,0.0,9.0,58,0.00,,,0.01,Wunderground v.1.15,2013-09-05 23:09:00,
2013-09-05 19:11:00,82.8,67.0,30.19,North,360,0.0,9.0,59,0.00,,,0.01,Wunderground v.1.15,2013-09-05 23:11:00,
2013-09-05 19:12:00,82.6,66.3,30.19,North,360,0.0,9.0,58,0.00,,,0.01,Wunderground v.1.15,2013-09-05 23:12:00,
2013-09-05 19:14:00,82.3,66.5,30.18,North,360,0.0,9.0,59,0.00,,,0.01,Wunderground v.1.15,2013-09-05 23:14:00,
2013-09-05 19:16:00,81.9,66.6,30.18,North,360,0.0,9.0,60,0.00,,,0.01,Wunderground v.1.15,2013-09-05 23:16:00,
2013-09-05 19:17:00,81.7,66.0,30.18,North,360,0.0,9.0,59,0.00,,,0.01,Wunderground v.1.15,2013-09-05 23:17:00,
2013-09-05 19:21:00,81.1,65.4,30.18,North,360,0.0,9.0,59,0.00,,,0.01,Wunderground v.1.15,2013-09-05 23:21:00,
2013-09-05 19:24:00,80.8,66.1,30.18,North,360,0.0,9.0,61,0.00,,,0.01,Wunderground v.1.15,2013-09-05 23:24:00,
2013-09-05 19:25:00,80.7,66.5,30.18,North,360,0.0,9.0,62,0.00,,,0.01,Wunderground v.1.15,2013-09-05 23:25:00,
2013-09-05 19:27:00,80.6,66.4,30.18,North,360,0.0,9.0,62,0.00,,,0.01,Wunderground v.1.15,2013-09-05 23:27:00,
2013-09-05 19:29:00,80.5,66.7,30.18,North,360,0.0,9.0,63,0.00,,,0.01,Wunderground v.1.15,2013-09-05 23:29:00,
2013-09-05 19:30:00,80.5,66.7,30.18,North,360,0.0,9.0,63,0.00,,,0.01,Wunderground v.1.15,2013-09-05 23:30:00,
2013-09-05 19:31:00,80.5,66.3,30.18,North,360,0.0,9.0,62,0.00,,,0.01,Wunderground v.1.15,2013-09-05 23:31:00,
2013-09-05 19:33:00,80.4,66.6,30.18,North,360,0.0,9.0,63,0.00,,,0.01,Wunderground v.1.15,2013-09-05 23:33:00,
2013-09-05 19:35:00,80.3,66.1,30.18,North,360,0.0,9.0,62,0.00,,,0.01,Wunderground v.1.15,2013-09-05 23:35:00,
2013-09-05 19:36:00,80.3,66.6,30.18,North,360,0.0,9.0,63,0.00,,,0.01,Wunderground v.1.15,2013-09-05 23:36:00,
2013-09-05 19:37:00,80.2,66.5,30.18,North,360,0.0,9.0,63,0.00,,,0.01,Wunderground v.1.15,2013-09-05 23:37:00,
2013-09-05 19:38:00,80.1,66.4,30.18,North,360,0.0,9.0,63,0.00,,,0.01,Wunderground v.1.15,2013-09-05 23:38:00,
2013-09-05 19:41:00,79.8,67.0,30.18,North,360,0.0,9.0,65,0.00,,,0.01,Wunderground v.1.15,2013-09-05 23:41:00,
2013-09-05 19:43:00,79.5,66.7,30.19,North,360,0.0,9.0,65,0.00,,,0.01,Wunderground v.1.15,2013-09-05 23:43:00,
2013-09-05 19:44:00,79.4,66.6,30.19,North,360,0.0,9.0,65,0.00,,,0.01,Wunderground v.1.15,2013-09-05 23:44:00,
2013-09-05 19:46:00,79.2,66.9,30.19,North,360,0.0,9.0,66,0.00,,,0.01,Wunderground v.1.15,2013-09-05 23:46:00,
2013-09-05 19:51:00,78.7,66.8,30.18,North,360,0.0,9.0,67,0.00,,,0.01,Wunderground v.1.15,2013-09-05 23:51:00,
2013-09-05 19:52:00,78.5,66.6,30.19,North,360,0.0,9.0,67,0.00,,,0.01,Wunderground v.1.15,2013-09-05 23:52:00,
2013-09-05 19:53:00,78.4,66.5,30.19,North,360,0.0,9.0,67,0.00,,,0.01,Wunderground v.1.15,2013-09-05 23:53:00,
2013-09-05 19:54:00,78.3,66.4,30.19,North,360,0.0,9.0,67,0.00,,,0.01,Wunderground v.1.15,2013-09-05 23:54:00,
2013-09-05 19:55:00,78.3,66.9,30.19,North,360,0.0,9.0,68,0.00,,,0.01,Wunderground v.1.15,2013-09-05 23:55:00,
2013-09-05 19:57:00,78.1,66.7,30.19,North,360,0.0,9.0,68,0.00,,,0.01,Wunderground v.1.15,2013-09-05 23:57:00,
2013-09-05 19:58:00,78.0,66.6,30.19,North,360,0.0,9.0,68,0.00,,,0.01,Wunderground v.1.15,2013-09-05 23:58:00,
2013-09-05 20:01:00,77.9,66.5,30.19,North,360,0.0,9.0,68,0.00,,,0.01,Wunderground v.1.15,2013-09-06 00:01:00,
2013-09-05 20:03:00,77.7,67.5,30.19,North,360,0.0,9.0,71,0.00,,,0.01,Wunderground v.1.15,2013-09-06 00:03:00,
2013-09-05 20:05:00,77.5,66.9,30.19,North,360,0.0,9.0,70,0.00,,,0.01,Wunderground v.1.15,2013-09-06 00:05:00,
2013-09-05 20:07:00,77.4,66.8,30.19,North,360,0.0,9.0,70,0.00,,,0.01,Wunderground v.1.15,2013-09-06 00:07:00,
2013-09-05 20:08:00,77.3,66.7,30.19,North,360,0.0,9.0,70,0.00,,,0.01,Wunderground v.1.15,2013-09-06 00:08:00,
2013-09-05 20:09:00,77.2,66.7,30.19,North,360,0.0,9.0,70,0.00,,,0.01,Wunderground v.1.15,2013-09-06 00:09:00,
2013-09-05 20:11:00,77.0,66.9,30.19,North,360,0.0,9.0,71,0.00,,,0.01,Wunderground v.1.15,2013-09-06 00:11:00,
2013-09-05 20:14:00,76.7,67.0,30.19,North,360,0.0,9.0,72,0.00,,,0.01,Wunderground v.1.15,2013-09-06 00:14:00,
2013-09-05 20:15:00,76.6,66.9,30.19,North,360,0.0,9.0,72,0.00,,,0.01,Wunderground v.1.15,2013-09-06 00:15:00,
2013-09-05 20:18:00,76.4,66.7,30.19,North,360,0.0,9.0,72,0.00,,,0.01,Wunderground v.1.15,2013-09-06 00:18:00,
2013-09-05 20:19:00,76.3,66.6,30.19,North,360,0.0,9.0,72,0.00,,,0.01,Wunderground v.1.15,2013-09-06 00:19:00,
2013-09-05 20:21:00,76.2,66.5,30.19,North,360,0.0,9.0,72,0.00,,,0.01,Wunderground v.1.15,2013-09-06 00:21:00,
2013-09-05 20:22:00,76.1,66.4,30.19,North,360,0.0,9.0,72,0.00,,,0.01,Wunderground v.1.15,2013-09-06 00:22:00,
2013-09-05 20:23:00,76.0,66.3,30.19,North,360,0.0,9.0,72,0.00,,,0.01,Wunderground v.1.15,2013-09-06 00:23:00,
2013-09-05 20:24:00,76.0,66.3,30.19,North,360,0.0,9.0,72,0.00,,,0.01,Wunderground v.1.15,2013-09-06 00:24:00,
2013-09-05 20:27:00,75.7,66.4,30.19,North,360,0.0,9.0,73,0.00,,,0.01,Wunderground v.1.15,2013-09-06 00:27:00,
2013-09-05 20:28:00,75.7,66.4,30.19,North,360,0.0,9.0,73,0.00,,,0.01,Wunderground v.1.15,2013-09-06 00:28:00,
2013-09-05 20:32:00,75.3,67.2,30.19,North,360,0.0,9.0,76,0.00,,,0.01,Wunderground v.1.15,2013-09-06 00:32:00,
2013-09-05 20:33:00,75.2,67.1,30.19,North,360,0.0,9.0,76,0.00,,,0.01,Wunderground v.1.15,2013-09-06 00:33:00,
2013-09-05 20:34:00,75.2,67.1,30.19,North,360,0.0,9.0,76,0.00,,,0.01,Wunderground v.1.15,2013-09-06 00:34:00,
2013-09-05 20:35:00,75.1,67.0,30.19,North,360,0.0,9.0,76,0.00,,,0.01,Wunderground v.1.15,2013-09-06 00:35:00,
2013-09-05 20:36:00,75.0,67.3,30.19,North,360,0.0,9.0,77,0.00,,,0.01,Wunderground v.1.15,2013-09-06 00:36:00,
2013-09-05 20:40:00,74.6,66.9,30.19,North,360,0.0,9.0,77,0.00,,,0.01,Wunderground v.1.15,2013-09-06 00:40:00,
2013-09-05 20:43:00,74.4,66.7,30.19,North,360,0.0,9.0,77,0.00,,,0.01,Wunderground v.1.15,2013-09-06 00:43:00,
2013-09-05 20:44:00,74.4,67.5,30.19,North,360,0.0,9.0,79,0.00,,,0.01,Wunderground v.1.15,2013-09-06 00:44:00,
2013-09-05 20:46:00,74.3,67.4,30.19,North,360,0.0,9.0,79,0.00,,,0.01,Wunderground v.1.15,2013-09-06 00:46:00,
2013-09-05 20:49:00,74.1,67.2,30.19,North,360,0.0,9.0,79,0.00,,,0.01,Wunderground v.1.15,2013-09-06 00:49:00,
2013-09-05 20:50:00,74.1,66.8,30.19,North,360,0.0,9.0,78,0.00,,,0.01,Wunderground v.1.15,2013-09-06 00:50:00,
2013-09-05 20:52:00,74.0,67.1,30.19,North,360,0.0,9.0,79,0.00,,,0.01,Wunderground v.1.15,2013-09-06 00:52:00,
2013-09-05 20:56:00,73.8,66.5,30.19,North,360,0.0,9.0,78,0.00,,,0.01,Wunderground v.1.15,2013-09-06 00:56:00,
2013-09-05 20:58:00,73.7,66.4,30.19,North,360,0.0,9.0,78,0.00,,,0.01,Wunderground v.1.15,2013-09-06 00:58:00,
2013-09-05 21:01:00,73.7,66.4,30.19,North,360,0.0,9.0,78,0.00,,,0.01,Wunderground v.1.15,2013-09-06 01:01:00,
2013-09-05 21:02:00,73.6,65.9,30.19,North,360,0.0,9.0,77,0.00,,,0.01,Wunderground v.1.15,2013-09-06 01:02:00,
2013-09-05 21:04:00,73.5,65.8,30.19,North,360,0.0,9.0,77,0.00,,,0.01,Wunderground v.1.15,2013-09-06 01:04:00,
2013-09-05 21:07:00,73.5,65.8,30.20,North,360,0.0,9.0,77,0.00,,,0.01,Wunderground v.1.15,2013-09-06 01:07:00,
2013-09-05 21:10:00,73.5,65.8,30.20,North,360,0.0,9.0,77,0.00,,,0.01,Wunderground v.1.15,2013-09-06 01:10:00,
2013-09-05 21:11:00,73.5,65.8,30.20,North,360,0.0,9.0,77,0.00,,,0.01,Wunderground v.1.15,2013-09-06 01:11:00,
2013-09-05 21:12:00,73.5,65.8,30.20,North,360,0.0,9.0,77,0.00,,,0.01,Wunderground v.1.15,2013-09-06 01:12:00,
2013-09-05 21:14:00,73.5,65.5,30.20,North,360,0.0,9.0,76,0.00,,,0.01,Wunderground v.1.15,2013-09-06 01:14:00,
2013-09-05 21:15:00,73.5,66.2,30.20,North,360,0.0,9.0,78,0.00,,,0.01,Wunderground v.1.15,2013-09-06 01:15:00,
2013-09-05 21:16:00,73.5,66.2,30.20,North,360,0.0,9.0,78,0.00,,,0.01,Wunderground v.1.15,2013-09-06 01:16:00,
2013-09-05 21:18:00,73.5,65.8,30.20,North,360,0.0,9.0,77,0.00,,,0.01,Wunderground v.1.15,2013-09-06 01:18:00,
2013-09-05 21:20:00,73.4,65.7,30.20,North,360,0.0,9.0,77,0.00,,,0.01,Wunderground v.1.15,2013-09-06 01:20:00,
2013-09-05 21:21:00,73.4,65.4,30.20,North,360,0.0,9.0,76,0.00,,,0.01,Wunderground v.1.15,2013-09-06 01:21:00,
2013-09-05 21:24:00,73.4,65.7,30.20,North,360,0.0,9.0,77,0.00,,,0.01,Wunderground v.1.15,2013-09-06 01:24:00,
2013-09-05 21:25:00,73.4,65.7,30.20,North,360,0.0,9.0,77,0.00,,,0.01,Wunderground v.1.15,2013-09-06 01:25:00,
2013-09-05 21:27:00,73.4,65.0,30.20,North,360,0.0,9.0,75,0.00,,,0.01,Wunderground v.1.15,2013-09-06 01:27:00,
2013-09-05 21:28:00,73.5,65.1,30.20,North,360,0.0,9.0,75,0.00,,,0.01,Wunderground v.1.15,2013-09-06 01:28:00,
2013-09-05 21:29:00,73.5,65.1,30.20,North,360,0.0,9.0,75,0.00,,,0.01,Wunderground v.1.15,2013-09-06 01:29:00,
2013-09-05 21:32:00,73.6,65.2,30.19,North,360,0.0,9.0,75,0.00,,,0.01,Wunderground v.1.15,2013-09-06 01:32:00,
2013-09-05 21:33:00,73.7,65.3,30.20,North,360,0.0,9.0,75,0.00,,,0.01,Wunderground v.1.15,2013-09-06 01:33:00,
2013-09-05 21:34:00,73.6,65.2,30.20,North,360,0.0,9.0,75,0.00,,,0.01,Wunderground v.1.15,2013-09-06 01:34:00,
2013-09-05 21:38:00,73.6,65.2,30.20,North,360,0.0,9.0,75,0.00,,,0.01,Wunderground v.1.15,2013-09-06 01:38:00,
2013-09-05 21:39:00,73.6,65.2,30.20,North,360,0.0,9.0,75,0.00,,,0.01,Wunderground v.1.15,2013-09-06 01:39:00,
2013-09-05 21:40:00,73.6,65.2,30.20,North,360,0.0,9.0,75,0.00,,,0.01,Wunderground v.1.15,2013-09-06 01:40:00,
2013-09-05 21:41:00,73.5,64.7,30.20,North,360,0.0,9.0,74,0.00,,,0.01,Wunderground v.1.15,2013-09-06 01:41:00,
2013-09-05 21:45:00,73.4,65.0,30.20,North,360,0.0,9.0,75,0.00,,,0.01,Wunderground v.1.15,2013-09-06 01:45:00,
2013-09-05 21:46:00,73.3,64.5,30.20,North,360,0.0,9.0,74,0.00,,,0.01,Wunderground v.1.15,2013-09-06 01:46:00,
2013-09-05 21:47:00,73.3,64.5,30.20,North,360,0.0,9.0,74,0.00,,,0.01,Wunderground v.1.15,2013-09-06 01:47:00,
2013-09-05 21:50:00,73.2,64.8,30.20,North,360,0.0,9.0,75,0.00,,,0.01,Wunderground v.1.15,2013-09-06 01:50:00,
2013-09-05 21:51:00,73.1,64.7,30.20,North,360,0.0,9.0,75,0.00,,,0.01,Wunderground v.1.15,2013-09-06 01:51:00,
2013-09-05 21:57:00,72.9,66.4,30.20,NNW,327,0.0,9.0,80,0.00,,,0.01,Wunderground v.1.15,2013-09-06 01:57:00,
2013-09-05 21:59:00,72.3,66.1,30.20,NNW,327,0.0,9.0,81,0.00,,,0.01,Wunderground v.1.15,2013-09-06 01:59:00,
2013-09-05 22:02:00,71.2,66.1,30.20,NNW,327,0.0,9.0,84,0.00,,,0.01,Wunderground v.1.15,2013-09-06 02:02:00,
2013-09-05 22:05:00,70.8,66.1,30.20,NNW,327,0.0,9.0,85,0.00,,,0.01,Wunderground v.1.15,2013-09-06 02:05:00,
2013-09-05 22:06:00,70.7,66.0,30.20,NNW,327,0.0,9.0,85,0.00,,,0.01,Wunderground v.1.15,2013-09-06 02:06:00,
2013-09-05 22:07:00,70.6,65.9,30.20,NNW,327,0.0,9.0,85,0.00,,,0.01,Wunderground v.1.15,2013-09-06 02:07:00,
2013-09-05 22:10:00,70.4,65.0,30.20,NNW,327,0.0,9.0,83,0.00,,,0.01,Wunderground v.1.15,2013-09-06 02:10:00,
2013-09-05 22:12:00,70.3,64.5,30.20,NNW,327,0.0,9.0,82,0.00,,,0.01,Wunderground v.1.15,2013-09-06 02:12:00,
2013-09-05 22:13:00,70.4,64.6,30.20,NNW,327,0.0,9.0,82,0.00,,,0.01,Wunderground v.1.15,2013-09-06 02:13:00,
2013-09-05 22:15:00,70.5,64.7,30.20,NNW,327,0.0,9.0,82,0.00,,,0.01,Wunderground v.1.15,2013-09-06 02:15:00,
2013-09-05 22:16:00,70.6,64.8,30.20,NNW,327,0.0,9.0,82,0.00,,,0.01,Wunderground v.1.15,2013-09-06 02:16:00,
2013-09-05 22:18:00,70.8,65.0,30.20,NNW,327,0.0,9.0,82,0.00,,,0.01,Wunderground v.1.15,2013-09-06 02:18:00,
2013-09-05 22:19:00,70.9,65.5,30.20,NNW,327,0.0,9.0,83,0.00,,,0.01,Wunderground v.1.15,2013-09-06 02:19:00,
2013-09-05 22:20:00,70.9,66.2,30.20,NNW,327,0.0,9.0,85,0.00,,,0.01,Wunderground v.1.15,2013-09-06 02:20:00,
2013-09-05 22:22:00,70.8,65.7,30.20,NNW,327,0.0,9.0,84,0.00,,,0.01,Wunderground v.1.15,2013-09-06 02:22:00,
2013-09-05 22:23:00,70.8,65.7,30.20,NNW,327,0.0,9.0,84,0.00,,,0.01,Wunderground v.1.15,2013-09-06 02:23:00,
2013-09-05 22:24:00,70.8,65.7,30.20,NNW,327,0.0,9.0,84,0.00,,,0.01,Wunderground v.1.15,2013-09-06 02:24:00,
2013-09-05 22:25:00,70.7,65.6,30.20,NNW,327,0.0,9.0,84,0.00,,,0.01,Wunderground v.1.15,2013-09-06 02:25:00,
2013-09-05 22:26:00,70.7,65.6,30.20,NNW,327,0.0,9.0,84,0.00,,,0.01,Wunderground v.1.15,2013-09-06 02:26:00,
2013-09-05 22:28:00,70.7,65.3,30.20,NNW,327,0.0,9.0,83,0.00,,,0.01,Wunderground v.1.15,2013-09-06 02:28:00,
2013-09-05 22:29:00,70.6,65.2,30.20,NNW,327,0.0,9.0,83,0.00,,,0.01,Wunderground v.1.15,2013-09-06 02:29:00,
2013-09-05 22:32:00,70.6,65.2,30.20,NNW,327,0.0,9.0,83,0.00,,,0.01,Wunderground v.1.15,2013-09-06 02:32:00,
2013-09-05 22:34:00,70.6,65.2,30.20,NNW,327,0.0,9.0,83,0.00,,,0.01,Wunderground v.1.15,2013-09-06 02:34:00,
2013-09-05 22:37:00,70.5,65.8,30.21,NNW,327,0.0,9.0,85,0.00,,,0.01,Wunderground v.1.15,2013-09-06 02:37:00,
2013-09-05 22:40:00,70.3,65.6,30.21,NNW,327,0.0,9.0,85,0.00,,,0.01,Wunderground v.1.15,2013-09-06 02:40:00,
2013-09-05 22:43:00,70.1,65.7,30.21,NNW,327,0.0,9.0,86,0.00,,,0.01,Wunderground v.1.15,2013-09-06 02:43:00,
2013-09-05 22:45:00,69.9,65.2,30.21,NNW,327,0.0,9.0,85,0.00,,,0.01,Wunderground v.1.15,2013-09-06 02:45:00,
2013-09-05 22:46:00,69.9,64.8,30.21,NNW,327,0.0,9.0,84,0.00,,,0.01,Wunderground v.1.15,2013-09-06 02:46:00,
2013-09-05 22:50:00,69.7,64.6,30.21,NNW,327,0.0,9.0,84,0.00,,,0.01,Wunderground v.1.15,2013-09-06 02:50:00,
2013-09-05 22:51:00,69.7,64.6,30.21,NNW,327,0.0,9.0,84,0.00,,,0.01,Wunderground v.1.15,2013-09-06 02:51:00,
2013-09-05 22:53:00,69.7,64.6,30.21,NNW,327,0.0,9.0,84,0.00,,,0.01,Wunderground v.1.15,2013-09-06 02:53:00,
2013-09-05 22:54:00,69.7,64.3,30.21,NNW,327,0.0,9.0,83,0.00,,,0.01,Wunderground v.1.15,2013-09-06 02:54:00,
2013-09-05 22:56:00,69.7,64.3,30.21,NNW,327,0.0,9.0,83,0.00,,,0.01,Wunderground v.1.15,2013-09-06 02:56:00,
2013-09-05 23:01:00,69.7,64.3,30.21,NNW,327,0.0,9.0,83,0.00,,,0.01,Wunderground v.1.15,2013-09-06 03:01:00,
2013-09-05 23:02:00,69.7,64.6,30.21,NNW,327,0.0,9.0,84,0.00,,,0.01,Wunderground v.1.15,2013-09-06 03:02:00,
2013-09-05 23:06:00,69.6,64.9,30.21,NNW,327,0.0,9.0,85,0.00,,,0.01,Wunderground v.1.15,2013-09-06 03:06:00,
2013-09-05 23:08:00,69.4,65.0,30.21,NNW,327,0.0,9.0,86,0.00,,,0.01,Wunderground v.1.15,2013-09-06 03:08:00,
2013-09-05 23:09:00,69.3,64.9,30.21,NNW,327,0.0,9.0,86,0.00,,,0.01,Wunderground v.1.15,2013-09-06 03:09:00,
2013-09-05 23:10:00,69.1,64.7,30.21,NNW,327,0.0,9.0,86,0.00,,,0.01,Wunderground v.1.15,2013-09-06 03:10:00,
2013-09-05 23:11:00,69.0,65.0,30.21,NNW,327,0.0,9.0,87,0.00,,,0.01,Wunderground v.1.15,2013-09-06 03:11:00,
2013-09-05 23:12:00,68.8,65.1,30.22,NNW,327,0.0,9.0,88,0.00,,,0.01,Wunderground v.1.15,2013-09-06 03:12:00,
2013-09-05 23:15:00,68.5,65.1,30.21,NNW,327,0.0,9.0,89,0.00,,,0.01,Wunderground v.1.15,2013-09-06 03:15:00,
2013-09-05 23:16:00,68.4,65.0,30.22,NNW,327,0.0,9.0,89,0.00,,,0.01,Wunderground v.1.15,2013-09-06 03:16:00,
2013-09-05 23:17:00,68.4,65.0,30.22,NNW,327,0.0,9.0,89,0.00,,,0.01,Wunderground v.1.15,2013-09-06 03:17:00,
2013-09-05 23:18:00,68.3,64.9,30.22,NNW,327,0.0,9.0,89,0.00,,,0.01,Wunderground v.1.15,2013-09-06 03:18:00,
2013-09-05 23:21:00,68.2,64.8,30.22,NNW,327,0.0,9.0,89,0.00,,,0.01,Wunderground v.1.15,2013-09-06 03:21:00,
2013-09-05 23:23:00,68.2,64.8,30.21,NNW,327,0.0,9.0,89,0.00,,,0.01,Wunderground v.1.15,2013-09-06 03:23:00,
2013-09-05 23:24:00,68.3,64.9,30.21,NNW,327,0.0,9.0,89,0.00,,,0.01,Wunderground v.1.15,2013-09-06 03:24:00,
2013-09-05 23:28:00,68.4,65.0,30.22,NNW,327,0.0,9.0,89,0.00,,,0.01,Wunderground v.1.15,2013-09-06 03:28:00,
2013-09-05 23:30:00,68.5,65.1,30.22,NNW,327,0.0,9.0,89,0.00,,,0.01,Wunderground v.1.15,2013-09-06 03:30:00,
2013-09-05 23:32:00,68.5,65.1,30.22,NNW,327,0.0,9.0,89,0.00,,,0.01,Wunderground v.1.15,2013-09-06 03:32:00,
2013-09-05 23:35:00,68.5,65.1,30.22,NNW,327,0.0,9.0,89,0.00,,,0.01,Wunderground v.1.15,2013-09-06 03:35:00,
2013-09-05 23:36:00,68.5,65.1,30.22,NNW,327,0.0,9.0,89,0.00,,,0.01,Wunderground v.1.15,2013-09-06 03:36:00,
2013-09-05 23:37:00,68.6,65.2,30.22,NNW,327,0.0,9.0,89,0.00,,,0.01,Wunderground v.1.15,2013-09-06 03:37:00,
2013-09-05 23:39:00,68.6,65.2,30.22,NNW,327,0.0,9.0,89,0.00,,,0.01,Wunderground v.1.15,2013-09-06 03:39:00,
2013-09-05 23:41:00,68.6,65.2,30.22,NNW,327,0.0,9.0,89,0.00,,,0.01,Wunderground v.1.15,2013-09-06 03:41:00,
2013-09-05 23:43:00,68.6,65.2,30.22,NNW,327,0.0,9.0,89,0.00,,,0.01,Wunderground v.1.15,2013-09-06 03:43:00,
2013-09-05 23:44:00,68.6,65.2,30.22,NNW,327,0.0,9.0,89,0.00,,,0.01,Wunderground v.1.15,2013-09-06 03:44:00,
2013-09-05 23:46:00,68.6,65.5,30.22,NW,323,0.0,9.0,90,0.00,,,0.01,Wunderground v.1.15,2013-09-06 03:46:00,
2013-09-05 23:48:00,68.6,65.5,30.22,NW,323,0.0,9.0,90,0.00,,,0.01,Wunderground v.1.15,2013-09-06 03:48:00,
2013-09-05 23:50:00,68.6,65.5,30.22,NW,323,0.0,9.0,90,0.00,,,0.01,Wunderground v.1.15,2013-09-06 03:50:00,
2013-09-05 23:53:00,68.6,65.5,30.22,NW,323,0.0,9.0,90,0.00,,,0.01,Wunderground v.1.15,2013-09-06 03:53:00,
2013-09-05 23:54:00,68.6,65.5,30.22,NW,323,0.0,9.0,90,0.00,,,0.01,Wunderground v.1.15,2013-09-06 03:54:00,
2013-09-05 23:57:00,68.6,65.5,30.22,NW,323,0.0,9.0,90,0.00,,,0.01,Wunderground v.1.15,2013-09-06 03:57:00,
2013-09-05 23:58:00,68.6,65.5,30.22,NW,323,0.0,9.0,90,0.00,,,0.01,Wunderground v.1.15,2013-09-06 03:58:00,